Time,TemperatureF,DewpointF,PressureIn,WindDirection,WindDirectionDegrees,WindSpeedMPH,WindSpeedGustMPH,Humidity,HourlyPrecipIn,Conditions,Clouds,dailyrainin,SoftwareType,DateUTC
2013-01-25 02:50:00,73.2,39.1,29.44,North,2,11.0,11.0,29,0.00,,FEW,0.00,VWS V14.00,2013-01-25 10:50:00,
2013-01-25 02:55:00,60.1,42.4,29.47,ESE,115,3.4,3.6,52,0.00,,FEW,0.00,VWS V14.00,2013-01-25 10:55:00,
2013-01-25 03:00:00,60.1,41.9,29.47,SE,138,2.0,2.7,51,0.00,,FEW,0.00,VWS V14.00,2013-01-25 11:00:00,
2013-01-25 03:05:00,59.9,41.8,29.50,NE,48,4.0,4.0,51,0.00,,FEW,0.00,VWS V14.00,2013-01-25 11:05:00,
2013-01-25 03:10:00,60.1,41.4,29.50,East,92,4.9,7.6,50,0.00,,FEW,0.00,VWS V14.00,2013-01-25 11:10:00,
2013-01-25 03:15:00,60.1,41.4,29.50,NE,48,2.5,2.5,50,0.00,,FEW,0.00,VWS V14.00,2013-01-25 11:15:00,
2013-01-25 03:20:00,60.1,40.9,29.50,NE,48,2.5,5.6,49,0.00,,FEW,0.00,VWS V14.00,2013-01-25 11:20:00,
2013-01-25 03:25:00,60.1,40.9,29.50,ESE,115,2.0,4.0,49,0.00,,FEW,0.00,VWS V14.00,2013-01-25 11:25:00,
2013-01-25 03:30:00,60.1,40.9,29.50,East,92,1.3,2.5,49,0.00,,FEW,0.00,VWS V14.00,2013-01-25 11:30:00,
2013-01-25 03:35:00,60.1,40.9,29.50,NE,48,4.0,4.0,49,0.00,,FEW,0.00,VWS V14.00,2013-01-25 11:35:00,
2013-01-25 03:40:00,60.1,40.3,29.50,East,92,5.8,7.8,48,0.00,,FEW,0.00,VWS V14.00,2013-01-25 11:40:00,
2013-01-25 03:45:00,60.3,40.5,29.50,NE,48,2.2,2.2,48,0.00,,FEW,0.00,VWS V14.00,2013-01-25 11:45:00,
2013-01-25 03:50:00,60.3,40.0,29.50,East,92,4.0,4.0,47,0.00,,FEW,0.00,VWS V14.00,2013-01-25 11:50:00,
2013-01-25 03:55:00,60.1,39.8,29.50,East,92,2.5,2.9,47,0.00,,FEW,0.00,VWS V14.00,2013-01-25 11:55:00,
2013-01-25 04:00:00,59.9,39.6,29.50,East,92,1.6,2.0,47,0.00,,FEW,0.00,VWS V14.00,2013-01-25 12:00:00,
2013-01-25 04:05:00,59.9,39.6,29.50,SSE,160,3.1,3.8,47,0.00,,FEW,0.00,VWS V14.00,2013-01-25 12:05:00,
2013-01-25 04:10:00,60.1,39.8,29.50,NE,48,3.4,3.4,47,0.00,,FEW,0.00,VWS V14.00,2013-01-25 12:10:00,
2013-01-25 04:15:00,60.3,39.4,29.50,East,92,2.7,2.7,46,0.00,,FEW,0.00,VWS V14.00,2013-01-25 12:15:00,
2013-01-25 04:20:00,60.4,39.6,29.50,ESE,115,2.2,7.8,46,0.00,,FEW,0.00,VWS V14.00,2013-01-25 12:20:00,
2013-01-25 04:25:00,60.4,39.6,29.50,SSE,160,3.8,4.9,46,0.00,,FEW,0.00,VWS V14.00,2013-01-25 12:25:00,
2013-01-25 04:30:00,60.4,39.6,29.50,NE,48,4.0,4.0,46,0.00,,FEW,0.00,VWS V14.00,2013-01-25 12:30:00,
2013-01-25 04:35:00,60.4,39.6,29.50,East,92,2.7,4.3,46,0.00,,FEW,0.00,VWS V14.00,2013-01-25 12:35:00,
2013-01-25 04:40:00,60.6,39.2,29.50,East,92,2.7,2.7,45,0.00,,FEW,0.00,VWS V14.00,2013-01-25 12:40:00,
2013-01-25 04:45:00,60.4,39.0,29.50,East,92,4.7,4.7,45,0.00,,FEW,0.00,VWS V14.00,2013-01-25 12:45:00,
2013-01-25 04:50:00,60.6,39.2,29.50,SSE,160,3.6,6.3,45,0.00,,FEW,0.00,VWS V14.00,2013-01-25 12:50:00,
2013-01-25 04:55:00,60.6,39.2,29.50,East,92,3.1,3.1,45,0.00,,FEW,0.00,VWS V14.00,2013-01-25 12:55:00,
2013-01-25 05:00:00,60.6,38.6,29.50,SE,138,3.6,4.0,44,0.00,,FEW,0.00,VWS V14.00,2013-01-25 13:00:00,
2013-01-25 05:05:00,60.6,38.6,29.47,East,92,3.4,3.8,44,0.00,,FEW,0.00,VWS V14.00,2013-01-25 13:05:00,
2013-01-25 05:10:00,60.6,38.0,29.47,ENE,70,4.0,4.0,43,0.00,,FEW,0.00,VWS V14.00,2013-01-25 13:10:00,
2013-01-25 05:15:00,60.6,37.4,29.47,East,92,3.8,6.0,42,0.00,,FEW,0.00,VWS V14.00,2013-01-25 13:15:00,
2013-01-25 05:20:00,60.8,37.6,29.50,ESE,115,2.5,2.5,42,0.00,,FEW,0.00,VWS V14.00,2013-01-25 13:20:00,
2013-01-25 05:25:00,60.8,37.0,29.50,East,92,6.0,6.0,41,0.00,,FEW,0.00,VWS V14.00,2013-01-25 13:25:00,
2013-01-25 05:30:00,60.8,37.0,29.50,South,182,2.5,2.7,41,0.00,,FEW,0.00,VWS V14.00,2013-01-25 13:30:00,
2013-01-25 05:35:00,60.8,37.0,29.50,East,92,4.3,4.3,41,0.00,,FEW,0.00,VWS V14.00,2013-01-25 13:35:00,
2013-01-25 05:40:00,61.0,35.9,29.50,NE,48,5.8,9.4,39,0.00,,FEW,0.00,VWS V14.00,2013-01-25 13:40:00,
2013-01-25 05:45:00,61.2,36.0,29.50,NNE,25,4.3,4.9,39,0.00,,FEW,0.00,VWS V14.00,2013-01-25 13:45:00,
2013-01-25 05:50:00,61.2,36.0,29.50,ENE,70,2.0,2.0,39,0.00,,FEW,0.00,VWS V14.00,2013-01-25 13:50:00,
2013-01-25 05:55:00,61.2,36.7,29.50,East,92,5.8,5.8,40,0.00,,FEW,0.00,VWS V14.00,2013-01-25 13:55:00,
2013-01-25 06:00:00,61.3,36.2,29.50,NE,48,5.6,5.6,39,0.00,,FEW,0.00,VWS V14.00,2013-01-25 14:00:00,
2013-01-25 06:05:00,61.3,36.2,29.50,NE,48,7.2,8.1,39,0.00,,FEW,0.00,VWS V14.00,2013-01-25 14:05:00,
2013-01-25 06:10:00,61.3,36.2,29.50,North,2,7.4,7.4,39,0.00,,FEW,0.00,VWS V14.00,2013-01-25 14:10:00,
2013-01-25 06:15:00,61.5,36.3,29.50,ESE,115,5.8,5.8,39,0.00,,FEW,0.00,VWS V14.00,2013-01-25 14:15:00,
2013-01-25 06:20:00,61.3,35.5,29.50,East,92,1.3,3.4,38,0.00,,FEW,0.00,VWS V14.00,2013-01-25 14:20:00,
2013-01-25 06:25:00,61.3,36.2,29.50,East,92,4.0,4.0,39,0.00,,FEW,0.00,VWS V14.00,2013-01-25 14:25:00,
2013-01-25 06:30:00,61.3,36.2,29.50,NE,48,3.1,3.1,39,0.00,,FEW,0.00,VWS V14.00,2013-01-25 14:30:00,
2013-01-25 06:35:00,61.2,36.0,29.50,ESE,115,4.9,4.9,39,0.00,,FEW,0.00,VWS V14.00,2013-01-25 14:35:00,
2013-01-25 06:40:00,61.3,35.5,29.50,NNE,25,4.9,4.9,38,0.00,,FEW,0.00,VWS V14.00,2013-01-25 14:40:00,
2013-01-25 06:45:00,61.3,36.2,29.50,NNE,25,5.8,5.8,39,0.00,,FEW,0.00,VWS V14.00,2013-01-25 14:45:00,
2013-01-25 06:50:00,61.3,35.5,29.50,NNE,25,8.7,8.7,38,0.00,,FEW,0.00,VWS V14.00,2013-01-25 14:50:00,
2013-01-25 06:55:00,61.2,36.0,29.50,NE,48,10.1,10.1,39,0.00,,FEW,0.00,VWS V14.00,2013-01-25 14:55:00,
2013-01-25 07:00:00,60.6,36.8,29.50,NE,48,9.4,9.4,41,0.00,,FEW,0.00,VWS V14.00,2013-01-25 15:00:00,
2013-01-25 07:05:00,60.4,36.0,29.50,East,92,8.1,8.1,40,0.00,,FEW,0.00,VWS V14.00,2013-01-25 15:05:00,
2013-01-25 07:10:00,60.6,36.8,29.50,East,92,8.7,8.7,41,0.00,,FEW,0.00,VWS V14.00,2013-01-25 15:10:00,
2013-01-25 07:15:00,60.6,36.2,29.50,NE,48,7.6,7.6,40,0.00,,FEW,0.00,VWS V14.00,2013-01-25 15:15:00,
2013-01-25 07:20:00,61.0,35.9,29.50,NE,48,6.3,6.3,39,0.00,,FEW,0.00,VWS V14.00,2013-01-25 15:20:00,
2013-01-25 07:25:00,61.0,35.9,29.50,East,92,9.6,9.6,39,0.00,,FEW,0.00,VWS V14.00,2013-01-25 15:25:00,
2013-01-25 07:30:00,61.2,36.0,29.50,SE,138,6.5,8.7,39,0.00,,FEW,0.00,VWS V14.00,2013-01-25 15:30:00,
2013-01-25 07:35:00,61.2,35.4,29.50,ENE,70,8.7,10.5,38,0.00,,FEW,0.00,VWS V14.00,2013-01-25 15:35:00,
2013-01-25 07:40:00,61.2,36.0,29.50,East,92,5.8,6.3,39,0.00,,FEW,0.00,VWS V14.00,2013-01-25 15:40:00,
2013-01-25 07:45:00,61.2,35.4,29.50,NE,48,7.4,10.1,38,0.00,,FEW,0.00,VWS V14.00,2013-01-25 15:45:00,
2013-01-25 07:50:00,61.3,35.5,29.47,East,92,6.7,6.7,38,0.00,,FEW,0.00,VWS V14.00,2013-01-25 15:50:00,
2013-01-25 07:55:00,61.3,35.5,29.47,NE,48,5.4,5.4,38,0.00,,FEW,0.00,VWS V14.00,2013-01-25 15:55:00,
2013-01-25 08:00:00,61.3,35.5,29.47,NE,48,8.5,8.5,38,0.00,,FEW,0.00,VWS V14.00,2013-01-25 16:00:00,
2013-01-25 08:05:00,61.3,35.5,29.50,East,92,5.4,5.4,38,0.00,,FEW,0.00,VWS V14.00,2013-01-25 16:05:00,
2013-01-25 08:10:00,61.3,35.5,29.50,East,92,10.3,10.3,38,0.00,,FEW,0.00,VWS V14.00,2013-01-25 16:10:00,
2013-01-25 08:15:00,61.3,35.5,29.50,East,92,1.3,1.3,38,0.00,,FEW,0.00,VWS V14.00,2013-01-25 16:15:00,
2013-01-25 08:20:00,61.3,35.5,29.50,East,92,2.0,2.0,38,0.00,,FEW,0.00,VWS V14.00,2013-01-25 16:20:00,
2013-01-25 08:25:00,61.3,35.5,29.50,East,92,5.6,5.6,38,0.00,,FEW,0.00,VWS V14.00,2013-01-25 16:25:00,
2013-01-25 08:30:00,61.3,35.5,29.50,NE,48,10.5,10.5,38,0.00,,FEW,0.00,VWS V14.00,2013-01-25 16:30:00,
2013-01-25 08:35:00,61.0,36.5,29.50,NE,48,5.4,5.6,40,0.00,,FEW,0.00,VWS V14.00,2013-01-25 16:35:00,
2013-01-25 08:40:00,61.0,36.5,29.50,NE,48,4.9,4.9,40,0.00,,FEW,0.00,VWS V14.00,2013-01-25 16:40:00,
2013-01-25 08:45:00,60.8,37.0,29.50,NE,48,9.8,9.8,41,0.00,,FEW,0.00,VWS V14.00,2013-01-25 16:45:00,
2013-01-25 08:50:00,60.8,37.6,29.53,ENE,70,5.8,6.0,42,0.00,,FEW,0.00,VWS V14.00,2013-01-25 16:50:00,
2013-01-25 08:55:00,60.8,37.6,29.53,East,92,10.7,10.7,42,0.00,,FEW,0.00,VWS V14.00,2013-01-25 16:55:00,
2013-01-25 09:00:00,60.8,37.6,29.53,East,92,9.4,9.4,42,0.00,,FEW,0.00,VWS V14.00,2013-01-25 17:00:00,
2013-01-25 09:05:00,60.8,37.6,29.53,East,92,7.8,7.8,42,0.00,,FEW,0.00,VWS V14.00,2013-01-25 17:05:00,
2013-01-25 09:10:00,60.8,38.2,29.53,NE,48,8.5,8.5,43,0.00,,FEW,0.00,VWS V14.00,2013-01-25 17:10:00,
2013-01-25 09:15:00,60.6,38.6,29.53,NE,48,6.0,6.0,44,0.00,,FEW,0.00,VWS V14.00,2013-01-25 17:15:00,
2013-01-25 09:20:00,60.6,39.2,29.53,East,92,6.3,6.3,45,0.00,,FEW,0.00,VWS V14.00,2013-01-25 17:20:00,
2013-01-25 09:25:00,60.4,39.0,29.53,NE,48,7.6,7.6,45,0.00,,FEW,0.00,VWS V14.00,2013-01-25 17:25:00,
2013-01-25 09:30:00,60.4,39.0,29.53,NE,48,5.8,8.7,45,0.00,,FEW,0.00,VWS V14.00,2013-01-25 17:30:00,
2013-01-25 09:35:00,60.4,39.6,29.56,East,92,10.5,10.5,46,0.00,,FEW,0.00,VWS V14.00,2013-01-25 17:35:00,
2013-01-25 09:40:00,60.6,39.2,29.56,East,92,4.9,4.9,45,0.00,,FEW,0.00,VWS V14.00,2013-01-25 17:40:00,
2013-01-25 09:45:00,60.6,39.2,29.56,ENE,70,9.6,9.6,45,0.00,,FEW,0.00,VWS V14.00,2013-01-25 17:45:00,
2013-01-25 09:50:00,60.8,39.3,29.56,NE,48,7.4,10.3,45,0.00,,FEW,0.00,VWS V14.00,2013-01-25 17:50:00,
2013-01-25 09:55:00,60.3,40.0,29.56,ENE,70,5.4,5.6,47,0.00,,FEW,0.00,VWS V14.00,2013-01-25 17:55:00,
2013-01-25 10:00:00,60.4,40.1,29.56,NE,48,10.1,10.1,47,0.00,,FEW,0.00,VWS V14.00,2013-01-25 18:00:00,
2013-01-25 10:05:00,60.8,39.9,29.56,NNE,25,7.8,11.0,46,0.00,,FEW,0.00,VWS V14.00,2013-01-25 18:05:00,
2013-01-25 10:10:00,61.0,40.1,29.56,ENE,70,3.8,6.5,46,0.00,,FEW,0.00,VWS V14.00,2013-01-25 18:10:00,
2013-01-25 10:15:00,61.0,40.6,29.56,East,92,4.0,4.3,47,0.00,,FEW,0.00,VWS V14.00,2013-01-25 18:15:00,
2013-01-25 10:20:00,61.0,40.6,29.56,East,92,6.9,6.9,47,0.00,,FEW,0.00,VWS V14.00,2013-01-25 18:20:00,
2013-01-25 10:25:00,60.1,41.4,29.56,NE,48,4.7,4.7,50,0.00,,FEW,0.00,VWS V14.00,2013-01-25 18:25:00,
2013-01-25 10:30:00,60.1,41.4,29.56,ESE,115,3.6,4.9,50,0.00,,FEW,0.00,VWS V14.00,2013-01-25 18:30:00,
2013-01-25 10:35:00,60.1,41.4,29.56,NE,48,2.5,2.5,50,0.00,,FEW,0.00,VWS V14.00,2013-01-25 18:35:00,
2013-01-25 10:40:00,60.1,41.4,29.56,North,2,4.3,7.4,50,0.00,,FEW,0.00,VWS V14.00,2013-01-25 18:40:00,
2013-01-25 10:45:00,58.6,44.4,29.56,East,92,4.0,5.4,59,0.00,,FEW,0.00,VWS V14.00,2013-01-25 18:45:00,
2013-01-25 10:50:00,58.5,45.1,29.56,ENE,70,5.8,8.1,61,0.00,,FEW,0.00,VWS V14.00,2013-01-25 18:50:00,
2013-01-25 10:55:00,58.1,45.6,29.56,NE,48,3.1,3.1,63,0.00,,FEW,0.00,VWS V14.00,2013-01-25 18:55:00,
2013-01-25 11:00:00,57.9,46.2,29.56,North,2,4.0,8.1,65,0.00,,FEW,0.00,VWS V14.00,2013-01-25 19:00:00,
2013-01-25 11:05:00,57.6,46.7,29.56,East,92,2.0,2.0,67,0.00,,FEW,0.00,VWS V14.00,2013-01-25 19:05:00,
2013-01-25 11:10:00,57.4,48.1,29.56,NE,48,1.3,3.1,71,0.00,,FEW,0.00,VWS V14.00,2013-01-25 19:10:00,
2013-01-25 11:15:00,57.2,47.9,29.56,ENE,70,2.9,2.9,71,0.00,,FEW,0.00,VWS V14.00,2013-01-25 19:15:00,
2013-01-25 11:20:00,57.2,47.9,29.56,ENE,70,2.9,2.9,71,0.00,,FEW,0.00,VWS V14.00,2013-01-25 19:20:00,
2013-01-25 11:25:00,57.2,49.0,29.56,East,92,2.5,2.5,74,0.04,,FEW,0.04,VWS V14.00,2013-01-25 19:25:00,
2013-01-25 11:30:00,57.4,49.9,29.56,East,92,2.5,2.5,76,0.04,,FEW,0.04,VWS V14.00,2013-01-25 19:30:00,
2013-01-25 11:35:00,57.2,49.7,29.53,East,92,2.5,2.5,76,0.04,,FEW,0.04,VWS V14.00,2013-01-25 19:35:00,
2013-01-25 11:40:00,57.0,49.9,29.53,East,92,2.5,2.5,77,0.04,,FEW,0.04,VWS V14.00,2013-01-25 19:40:00,
2013-01-25 11:45:00,56.8,50.1,29.53,East,92,2.5,2.5,78,0.04,,FEW,0.04,VWS V14.00,2013-01-25 19:45:00,
2013-01-25 11:50:00,56.8,50.1,29.53,ENE,70,3.4,3.4,78,0.04,,FEW,0.04,VWS V14.00,2013-01-25 19:50:00,
2013-01-25 11:55:00,56.8,50.1,29.53,NE,48,3.8,3.8,78,0.04,,FEW,0.04,VWS V14.00,2013-01-25 19:55:00,
2013-01-25 12:00:00,57.0,50.6,29.53,SE,138,2.9,2.9,79,0.04,,FEW,0.00,VWS V14.00,2013-01-25 20:00:00,
2013-01-25 12:05:00,57.0,50.2,29.50,NE,48,2.9,2.9,78,0.04,,FEW,0.00,VWS V14.00,2013-01-25 20:05:00,
2013-01-25 12:10:00,56.8,50.4,29.50,East,92,2.7,5.8,79,0.04,,FEW,0.00,VWS V14.00,2013-01-25 20:10:00,
2013-01-25 12:15:00,56.8,50.1,29.50,ENE,70,2.5,2.5,78,0.04,,FEW,0.00,VWS V14.00,2013-01-25 20:15:00,
2013-01-25 12:20:00,57.0,49.9,29.50,NE,48,0.0,1.3,77,0.04,,FEW,0.00,VWS V14.00,2013-01-25 20:20:00,
2013-01-25 12:25:00,57.2,50.8,29.50,NE,48,1.3,1.3,79,0.00,,FEW,0.00,VWS V14.00,2013-01-25 20:25:00,
2013-01-25 12:30:00,57.4,51.9,29.50,East,92,3.6,3.6,82,0.00,,FEW,0.00,VWS V14.00,2013-01-25 20:30:00,
2013-01-25 12:35:00,57.2,51.8,29.50,NE,48,2.7,2.7,82,0.00,,FEW,0.00,VWS V14.00,2013-01-25 20:35:00,
2013-01-25 12:40:00,57.2,51.8,29.50,NE,48,4.9,5.8,82,0.00,,FEW,0.00,VWS V14.00,2013-01-25 20:40:00,
2013-01-25 12:45:00,57.4,51.6,29.50,NE,48,2.0,2.0,81,0.00,,FEW,0.00,VWS V14.00,2013-01-25 20:45:00,
2013-01-25 12:50:00,57.4,51.9,29.50,NE,48,2.7,2.7,82,0.00,,FEW,0.00,VWS V14.00,2013-01-25 20:50:00,
2013-01-25 12:55:00,57.6,51.8,29.50,East,92,4.0,4.0,81,0.00,,FEW,0.00,VWS V14.00,2013-01-25 20:55:00,
2013-01-25 13:00:00,57.7,51.6,29.50,East,92,3.1,4.3,80,0.00,,FEW,0.00,VWS V14.00,2013-01-25 21:00:00,
2013-01-25 13:05:00,58.1,50.9,29.47,NE,48,4.3,4.3,77,0.00,,FEW,0.00,VWS V14.00,2013-01-25 21:05:00,
2013-01-25 13:10:00,58.3,49.7,29.47,NE,48,3.6,3.6,73,0.00,,FEW,0.00,VWS V14.00,2013-01-25 21:10:00,
2013-01-25 13:15:00,58.6,50.4,29.47,East,92,2.9,2.9,74,0.00,,FEW,0.00,VWS V14.00,2013-01-25 21:15:00,
2013-01-25 13:20:00,58.8,49.8,29.47,ENE,70,3.1,4.3,72,0.00,,FEW,0.00,VWS V14.00,2013-01-25 21:20:00,
2013-01-25 13:25:00,59.0,49.2,29.47,NE,48,2.2,5.4,70,0.00,,FEW,0.00,VWS V14.00,2013-01-25 21:25:00,
2013-01-25 13:30:00,59.4,48.8,29.47,NE,48,4.9,4.9,68,0.00,,FEW,0.00,VWS V14.00,2013-01-25 21:30:00,
2013-01-25 13:35:00,59.4,47.2,29.44,NE,48,6.3,7.6,64,0.00,,FEW,0.00,VWS V14.00,2013-01-25 21:35:00,
2013-01-25 13:40:00,59.5,47.8,29.44,NE,48,6.0,6.5,65,0.00,,FEW,0.00,VWS V14.00,2013-01-25 21:40:00,
2013-01-25 13:45:00,59.5,47.0,29.44,NE,48,5.8,5.8,63,0.00,,FEW,0.00,VWS V14.00,2013-01-25 21:45:00,
2013-01-25 13:50:00,59.7,47.1,29.44,North,2,3.8,4.9,63,0.00,,FEW,0.00,VWS V14.00,2013-01-25 21:50:00,
2013-01-25 13:55:00,59.9,47.7,29.44,NE,48,6.9,6.9,64,0.00,,FEW,0.00,VWS V14.00,2013-01-25 21:55:00,
2013-01-25 14:00:00,60.1,46.6,29.44,NE,48,4.3,5.4,61,0.00,,FEW,0.00,VWS V14.00,2013-01-25 22:00:00,
2013-01-25 14:05:00,60.1,47.0,29.44,ENE,70,7.2,7.2,62,0.00,,FEW,0.00,VWS V14.00,2013-01-25 22:05:00,
2013-01-25 14:10:00,60.1,46.6,29.44,East,92,4.0,7.2,61,0.00,,FEW,0.00,VWS V14.00,2013-01-25 22:10:00,
2013-01-25 14:15:00,59.9,46.0,29.44,SE,138,6.3,8.1,60,0.00,,FEW,0.00,VWS V14.00,2013-01-25 22:15:00,
2013-01-25 14:20:00,59.9,46.4,29.44,NNE,25,3.6,4.3,61,0.00,,FEW,0.00,VWS V14.00,2013-01-25 22:20:00,
2013-01-25 14:25:00,60.1,46.6,29.44,East,92,0.9,6.0,61,0.00,,FEW,0.00,VWS V14.00,2013-01-25 22:25:00,
2013-01-25 14:30:00,59.9,46.9,29.44,NE,48,3.6,3.8,62,0.00,,FEW,0.00,VWS V14.00,2013-01-25 22:30:00,
2013-01-25 14:35:00,59.9,46.4,29.44,NE,48,2.0,2.0,61,0.00,,FEW,0.00,VWS V14.00,2013-01-25 22:35:00,
2013-01-25 14:40:00,59.9,46.4,29.44,ENE,70,2.7,3.6,61,0.00,,FEW,0.00,VWS V14.00,2013-01-25 22:40:00,
2013-01-25 14:45:00,59.9,46.4,29.44,NE,48,2.5,2.7,61,0.00,,FEW,0.00,VWS V14.00,2013-01-25 22:45:00,
2013-01-25 14:50:00,59.9,46.0,29.44,East,92,3.1,3.6,60,0.00,,FEW,0.00,VWS V14.00,2013-01-25 22:50:00,
2013-01-25 14:51:00,73.2,39.1,29.44,North,2,11.0,11.0,29,0.00,,FEW,0.00,VWS V14.00,2013-01-25 22:51:00,
2013-01-25 14:52:00,60.1,42.4,29.47,NE,48,1.3,11.0,52,0.00,,FEW,0.00,VWS V14.00,2013-01-25 22:52:00,
2013-01-25 14:53:00,60.1,42.4,29.47,NE,48,5.4,5.4,52,0.00,,FEW,0.00,VWS V14.00,2013-01-25 22:53:00,
2013-01-25 14:54:00,60.1,42.4,29.47,NE,48,3.4,5.4,52,0.00,,FEW,0.00,VWS V14.00,2013-01-25 22:54:00,
2013-01-25 14:55:00,59.9,45.5,29.44,SE,138,2.5,2.5,59,0.00,,FEW,0.00,VWS V14.00,2013-01-25 22:55:00,
2013-01-25 14:56:00,60.1,42.4,29.47,ESE,115,3.4,3.6,52,0.00,,FEW,0.00,VWS V14.00,2013-01-25 22:56:00,
2013-01-25 14:57:00,60.1,42.4,29.47,ESE,115,3.4,3.4,52,0.00,,FEW,0.00,VWS V14.00,2013-01-25 22:57:00,
2013-01-25 14:58:00,60.1,41.9,29.47,ENE,70,2.0,3.4,51,0.00,,FEW,0.00,VWS V14.00,2013-01-25 22:58:00,
2013-01-25 14:59:00,60.1,41.9,29.47,East,92,2.5,2.5,51,0.00,,FEW,0.00,VWS V14.00,2013-01-25 22:59:00,
2013-01-25 15:00:00,59.9,44.7,29.44,NE,48,5.6,5.8,57,0.00,,FEW,0.00,VWS V14.00,2013-01-25 23:00:00,
2013-01-25 15:01:00,60.1,41.9,29.47,SE,138,2.0,2.7,51,0.00,,FEW,0.00,VWS V14.00,2013-01-25 23:01:00,
2013-01-25 15:02:00,60.1,41.9,29.47,SE,138,2.7,2.7,51,0.00,,FEW,0.00,VWS V14.00,2013-01-25 23:02:00,
2013-01-25 15:03:00,60.1,41.9,29.50,SE,138,2.5,2.7,51,0.00,,FEW,0.00,VWS V14.00,2013-01-25 23:03:00,
2013-01-25 15:04:00,59.9,41.8,29.50,East,92,4.0,5.4,51,0.00,,FEW,0.00,VWS V14.00,2013-01-25 23:04:00,
2013-01-25 15:05:00,59.9,45.1,29.44,NE,48,3.6,4.0,58,0.00,,FEW,0.00,VWS V14.00,2013-01-25 23:05:00,
2013-01-25 15:06:00,59.9,41.8,29.50,NE,48,4.0,4.0,51,0.00,,FEW,0.00,VWS V14.00,2013-01-25 23:06:00,
2013-01-25 15:07:00,60.1,41.9,29.50,East,92,1.3,4.0,51,0.00,,FEW,0.00,VWS V14.00,2013-01-25 23:07:00,
2013-01-25 15:08:00,60.1,41.9,29.50,ENE,70,3.1,3.1,51,0.00,,FEW,0.00,VWS V14.00,2013-01-25 23:08:00,
2013-01-25 15:09:00,60.1,41.9,29.50,NE,48,2.7,3.1,51,0.00,,FEW,0.00,VWS V14.00,2013-01-25 23:09:00,
2013-01-25 15:10:00,59.4,46.3,29.44,NE,48,5.4,5.4,62,0.00,,FEW,0.00,VWS V14.00,2013-01-25 23:10:00,
2013-01-25 15:11:00,60.1,41.4,29.50,East,92,4.9,7.6,50,0.00,,FEW,0.00,VWS V14.00,2013-01-25 23:11:00,
2013-01-25 15:12:00,60.1,41.4,29.50,South,182,2.5,4.9,50,0.00,,FEW,0.00,VWS V14.00,2013-01-25 23:12:00,
2013-01-25 15:13:00,60.1,40.9,29.50,NE,48,4.3,4.3,49,0.00,,FEW,0.00,VWS V14.00,2013-01-25 23:13:00,
2013-01-25 15:14:00,60.1,41.4,29.50,NE,48,2.5,4.3,50,0.00,,FEW,0.00,VWS V14.00,2013-01-25 23:14:00,
2013-01-25 15:15:00,59.0,47.3,29.44,NE,48,3.4,3.4,65,0.00,,FEW,0.00,VWS V14.00,2013-01-25 23:15:00,
2013-01-25 15:16:00,60.1,41.4,29.50,NE,48,1.6,2.5,50,0.00,,FEW,0.00,VWS V14.00,2013-01-25 23:16:00,
2013-01-25 15:17:00,59.9,41.2,29.50,East,92,4.7,4.7,50,0.00,,FEW,0.00,VWS V14.00,2013-01-25 23:17:00,
2013-01-25 15:18:00,59.9,41.2,29.50,NE,48,4.9,4.9,50,0.00,,FEW,0.00,VWS V14.00,2013-01-25 23:18:00,
2013-01-25 15:19:00,59.9,41.2,29.50,SSE,160,3.1,4.9,50,0.00,,FEW,0.00,VWS V14.00,2013-01-25 23:19:00,
2013-01-25 15:20:00,58.8,47.5,29.44,North,2,4.9,4.9,66,0.00,,FEW,0.00,VWS V14.00,2013-01-25 23:20:00,
2013-01-25 15:21:00,60.1,40.9,29.50,NE,48,2.5,5.6,49,0.00,,FEW,0.00,VWS V14.00,2013-01-25 23:21:00,
2013-01-25 15:22:00,60.1,40.9,29.50,South,182,2.0,4.3,49,0.00,,FEW,0.00,VWS V14.00,2013-01-25 23:22:00,
2013-01-25 15:23:00,60.3,41.0,29.50,NE,48,2.2,3.1,49,0.00,,FEW,0.00,VWS V14.00,2013-01-25 23:23:00,
2013-01-25 15:24:00,60.1,40.9,29.50,East,92,0.0,2.2,49,0.00,,FEW,0.00,VWS V14.00,2013-01-25 23:24:00,
2013-01-25 15:25:00,58.8,47.5,29.44,NE,48,5.8,5.8,66,0.00,,FEW,0.00,VWS V14.00,2013-01-25 23:25:00,
2013-01-25 15:26:00,60.1,40.9,29.50,SSE,160,3.8,4.0,49,0.00,,FEW,0.00,VWS V14.00,2013-01-25 23:26:00,
2013-01-25 15:27:00,60.1,40.9,29.50,East,92,3.6,3.8,49,0.00,,FEW,0.00,VWS V14.00,2013-01-25 23:27:00,
2013-01-25 15:28:00,60.1,40.9,29.50,ESE,115,3.1,4.7,49,0.00,,FEW,0.00,VWS V14.00,2013-01-25 23:28:00,
2013-01-25 15:29:00,60.1,40.9,29.50,East,92,2.0,3.4,49,0.00,,FEW,0.00,VWS V14.00,2013-01-25 23:29:00,
2013-01-25 15:30:00,58.6,47.7,29.44,NE,48,4.3,4.3,67,0.00,,FEW,0.00,VWS V14.00,2013-01-25 23:30:00,
2013-01-25 15:31:00,60.1,40.9,29.50,South,182,2.0,2.5,49,0.00,,FEW,0.00,VWS V14.00,2013-01-25 23:31:00,
2013-01-25 15:32:00,59.9,40.7,29.50,NE,48,2.5,2.7,49,0.00,,FEW,0.00,VWS V14.00,2013-01-25 23:32:00,
2013-01-25 15:33:00,59.9,40.7,29.50,ENE,70,0.0,2.5,49,0.00,,FEW,0.00,VWS V14.00,2013-01-25 23:33:00,
2013-01-25 15:34:00,59.9,40.7,29.50,NE,48,2.9,4.0,49,0.00,,FEW,0.00,VWS V14.00,2013-01-25 23:34:00,
2013-01-25 15:35:00,58.6,47.7,29.44,NE,48,4.0,6.5,67,0.00,,FEW,0.00,VWS V14.00,2013-01-25 23:35:00,
2013-01-25 15:36:00,60.1,40.9,29.50,North,2,2.5,4.0,49,0.00,,FEW,0.00,VWS V14.00,2013-01-25 23:36:00,
2013-01-25 15:37:00,60.1,40.9,29.50,ESE,115,1.6,2.5,49,0.00,,FEW,0.00,VWS V14.00,2013-01-25 23:37:00,
2013-01-25 15:38:00,60.1,40.9,29.50,NE,48,2.0,2.0,49,0.00,,FEW,0.00,VWS V14.00,2013-01-25 23:38:00,
2013-01-25 15:39:00,60.1,40.9,29.50,ENE,70,2.5,3.8,49,0.00,,FEW,0.00,VWS V14.00,2013-01-25 23:39:00,
2013-01-25 15:40:00,58.6,47.7,29.44,ENE,70,4.3,4.3,67,0.00,,FEW,0.00,VWS V14.00,2013-01-25 23:40:00,
2013-01-25 15:41:00,60.3,40.0,29.50,East,92,5.8,7.8,47,0.00,,FEW,0.00,VWS V14.00,2013-01-25 23:41:00,
2013-01-25 15:42:00,60.3,40.5,29.50,NE,48,5.8,5.8,48,0.00,,FEW,0.00,VWS V14.00,2013-01-25 23:42:00,
2013-01-25 15:43:00,60.3,40.5,29.50,NE,48,5.8,5.8,48,0.00,,FEW,0.00,VWS V14.00,2013-01-25 23:43:00,
2013-01-25 15:44:00,60.3,40.5,29.50,East,92,2.5,5.8,48,0.00,,FEW,0.00,VWS V14.00,2013-01-25 23:44:00,
2013-01-25 15:45:00,58.5,48.3,29.44,ENE,70,2.5,2.5,69,0.00,,FEW,0.00,VWS V14.00,2013-01-25 23:45:00,
2013-01-25 15:46:00,60.3,40.5,29.50,NE,48,2.2,2.2,48,0.00,,FEW,0.00,VWS V14.00,2013-01-25 23:46:00,
2013-01-25 15:47:00,60.3,40.0,29.50,ESE,115,3.4,4.9,47,0.00,,FEW,0.00,VWS V14.00,2013-01-25 23:47:00,
2013-01-25 15:48:00,60.3,40.0,29.50,NE,48,4.3,4.3,47,0.00,,FEW,0.00,VWS V14.00,2013-01-25 23:48:00,
2013-01-25 15:49:00,60.3,40.0,29.50,East,92,4.0,4.3,47,0.00,,FEW,0.00,VWS V14.00,2013-01-25 23:49:00,
2013-01-25 15:50:00,58.5,48.3,29.44,NE,48,4.7,4.7,69,0.00,,FEW,0.00,VWS V14.00,2013-01-25 23:50:00,
2013-01-25 15:51:00,60.3,40.0,29.50,SE,138,2.7,4.0,47,0.00,,FEW,0.00,VWS V14.00,2013-01-25 23:51:00,
2013-01-25 15:52:00,60.3,40.0,29.50,East,92,3.4,3.4,47,0.00,,FEW,0.00,VWS V14.00,2013-01-25 23:52:00,
2013-01-25 15:53:00,60.3,40.0,29.50,ENE,70,2.5,3.4,47,0.00,,FEW,0.00,VWS V14.00,2013-01-25 23:53:00,
2013-01-25 15:54:00,60.3,40.0,29.50,East,92,0.9,3.8,47,0.00,,FEW,0.00,VWS V14.00,2013-01-25 23:54:00,
2013-01-25 15:55:00,58.3,48.2,29.44,NE,48,6.5,6.5,69,0.00,,FEW,0.00,VWS V14.00,2013-01-25 23:55:00,
2013-01-25 15:56:00,60.1,39.8,29.50,ENE,70,3.8,3.8,47,0.00,,FEW,0.00,VWS V14.00,2013-01-25 23:56:00,
2013-01-25 15:57:00,60.1,39.8,29.50,East,92,1.6,3.8,47,0.00,,FEW,0.00,VWS V14.00,2013-01-25 23:57:00,
2013-01-25 15:58:00,60.1,39.8,29.50,East,92,3.6,3.6,47,0.00,,FEW,0.00,VWS V14.00,2013-01-25 23:58:00,
2013-01-25 15:59:00,60.1,39.8,29.50,East,92,3.6,3.6,47,0.00,,FEW,0.00,VWS V14.00,2013-01-25 23:59:00,
2013-01-25 16:00:00,58.5,48.0,29.44,ESE,115,6.3,6.3,68,0.00,,FEW,0.00,VWS V14.00,2013-01-26 00:00:00,
2013-01-25 16:01:00,59.9,39.6,29.50,East,92,1.6,2.0,47,0.00,,FEW,0.00,VWS V14.00,2013-01-26 00:01:00,
2013-01-25 16:02:00,59.9,39.6,29.50,East,92,1.6,1.6,47,0.00,,FEW,0.00,VWS V14.00,2013-01-26 00:02:00,
2013-01-25 16:03:00,59.9,39.6,29.50,NE,48,2.9,2.9,47,0.00,,FEW,0.00,VWS V14.00,2013-01-26 00:03:00,
2013-01-25 16:04:00,59.9,39.6,29.50,SSE,160,3.6,3.6,47,0.00,,FEW,0.00,VWS V14.00,2013-01-26 00:04:00,
2013-01-25 16:05:00,58.5,48.0,29.44,NE,48,3.1,4.0,68,0.00,,FEW,0.00,VWS V14.00,2013-01-26 00:05:00,
2013-01-25 16:06:00,59.9,39.6,29.50,East,92,3.6,3.8,47,0.00,,FEW,0.00,VWS V14.00,2013-01-26 00:06:00,
2013-01-25 16:07:00,59.9,39.6,29.50,ENE,70,2.7,3.6,47,0.00,,FEW,0.00,VWS V14.00,2013-01-26 00:07:00,
2013-01-25 16:08:00,59.9,39.6,29.50,SE,138,1.3,4.0,47,0.00,,FEW,0.00,VWS V14.00,2013-01-26 00:08:00,
2013-01-25 16:09:00,60.1,39.8,29.50,SE,138,4.5,5.8,47,0.00,,FEW,0.00,VWS V14.00,2013-01-26 00:09:00,
2013-01-25 16:10:00,58.8,47.9,29.44,NE,48,5.4,5.4,67,0.00,,FEW,0.00,VWS V14.00,2013-01-26 00:10:00,
2013-01-25 16:11:00,60.1,39.8,29.50,SE,138,4.0,4.0,47,0.00,,FEW,0.00,VWS V14.00,2013-01-26 00:11:00,
2013-01-25 16:12:00,60.1,39.8,29.50,SE,138,2.7,4.0,47,0.00,,FEW,0.00,VWS V14.00,2013-01-26 00:12:00,
2013-01-25 16:13:00,60.1,39.8,29.50,ESE,115,2.5,4.3,47,0.00,,FEW,0.00,VWS V14.00,2013-01-26 00:13:00,
2013-01-25 16:14:00,60.1,39.8,29.50,ESE,115,3.6,3.6,47,0.00,,FEW,0.00,VWS V14.00,2013-01-26 00:14:00,
2013-01-25 16:15:00,59.0,47.7,29.44,East,92,4.3,5.8,66,0.00,,FEW,0.00,VWS V14.00,2013-01-26 00:15:00,
2013-01-25 16:16:00,60.3,39.4,29.50,ESE,115,2.0,2.7,46,0.00,,FEW,0.00,VWS V14.00,2013-01-26 00:16:00,
2013-01-25 16:17:00,60.3,40.0,29.50,SE,138,2.9,2.9,47,0.00,,FEW,0.00,VWS V14.00,2013-01-26 00:17:00,
2013-01-25 16:18:00,60.3,39.4,29.50,South,182,5.6,5.6,46,0.00,,FEW,0.00,VWS V14.00,2013-01-26 00:18:00,
2013-01-25 16:19:00,60.3,39.4,29.50,SSE,160,4.9,5.6,46,0.00,,FEW,0.00,VWS V14.00,2013-01-26 00:19:00,
2013-01-25 16:20:00,59.4,47.2,29.41,East,92,2.7,6.5,64,0.00,,FEW,0.00,VWS V14.00,2013-01-26 00:20:00,
2013-01-25 16:21:00,60.4,39.6,29.50,SE,138,3.1,7.8,46,0.00,,FEW,0.00,VWS V14.00,2013-01-26 00:21:00,
2013-01-25 16:22:00,60.4,39.6,29.50,SE,138,2.0,3.1,46,0.00,,FEW,0.00,VWS V14.00,2013-01-26 00:22:00,
2013-01-25 16:23:00,60.4,39.6,29.50,East,92,5.8,5.8,46,0.00,,FEW,0.00,VWS V14.00,2013-01-26 00:23:00,
2013-01-25 16:24:00,60.4,39.6,29.50,NE,48,2.0,5.8,46,0.00,,FEW,0.00,VWS V14.00,2013-01-26 00:24:00,
2013-01-25 16:25:00,59.4,46.8,29.41,SE,138,2.7,2.7,63,0.00,,FEW,0.00,VWS V14.00,2013-01-26 00:25:00,
2013-01-25 16:27:00,60.4,39.6,29.50,SSE,160,3.8,4.9,46,0.00,,FEW,0.00,VWS V14.00,2013-01-26 00:27:00,
2013-01-25 16:28:00,60.6,39.8,29.50,East,92,4.3,4.3,46,0.00,,FEW,0.00,VWS V14.00,2013-01-26 00:28:00,
2013-01-25 16:29:00,60.6,39.8,29.50,ENE,70,2.0,4.3,46,0.00,,FEW,0.00,VWS V14.00,2013-01-26 00:29:00,
2013-01-25 16:30:00,59.5,47.0,29.41,East,92,1.3,2.5,63,0.00,,FEW,0.00,VWS V14.00,2013-01-26 00:30:00,
2013-01-25 16:31:00,60.4,39.6,29.50,East,92,1.6,4.0,46,0.00,,FEW,0.00,VWS V14.00,2013-01-26 00:31:00,
2013-01-25 16:32:00,60.4,39.6,29.50,East,92,1.6,1.6,46,0.00,,FEW,0.00,VWS V14.00,2013-01-26 00:32:00,
2013-01-25 16:33:00,60.4,39.6,29.50,SE,138,3.6,3.6,46,0.00,,FEW,0.00,VWS V14.00,2013-01-26 00:33:00,
2013-01-25 16:34:00,60.4,39.6,29.50,East,92,4.0,4.0,46,0.00,,FEW,0.00,VWS V14.00,2013-01-26 00:34:00,
2013-01-25 16:35:00,59.5,47.0,29.44,SE,138,3.8,3.8,63,0.00,,FEW,0.00,VWS V14.00,2013-01-26 00:35:00,
2013-01-25 16:36:00,60.4,39.6,29.50,South,182,4.0,4.3,46,0.00,,FEW,0.00,VWS V14.00,2013-01-26 00:36:00,
2013-01-25 16:37:00,60.4,39.0,29.50,South,182,2.5,4.0,45,0.00,,FEW,0.00,VWS V14.00,2013-01-26 00:37:00,
2013-01-25 16:38:00,60.4,39.6,29.50,East,92,7.6,7.6,46,0.00,,FEW,0.00,VWS V14.00,2013-01-26 00:38:00,
2013-01-25 16:39:00,60.6,39.2,29.50,East,92,2.0,7.6,45,0.00,,FEW,0.00,VWS V14.00,2013-01-26 00:39:00,
2013-01-25 16:40:00,59.5,47.0,29.44,SE,138,2.5,2.5,63,0.00,,FEW,0.00,VWS V14.00,2013-01-26 00:40:00,
2013-01-25 16:41:00,60.6,39.2,29.50,East,92,2.7,2.7,45,0.00,,FEW,0.00,VWS V14.00,2013-01-26 00:41:00,
2013-01-25 16:42:00,60.6,39.2,29.50,East,92,2.7,3.8,45,0.00,,FEW,0.00,VWS V14.00,2013-01-26 00:42:00,
2013-01-25 16:43:00,60.6,39.2,29.50,SE,138,2.9,4.0,45,0.00,,FEW,0.00,VWS V14.00,2013-01-26 00:43:00,
2013-01-25 16:44:00,60.6,39.2,29.50,SE,138,2.9,2.9,45,0.00,,FEW,0.00,VWS V14.00,2013-01-26 00:44:00,
2013-01-25 16:45:00,59.4,46.8,29.44,ESE,115,4.0,4.0,63,0.00,,FEW,0.00,VWS V14.00,2013-01-26 00:45:00,
2013-01-25 16:46:00,60.4,39.0,29.50,ESE,115,3.6,4.7,45,0.00,,FEW,0.00,VWS V14.00,2013-01-26 00:46:00,
2013-01-25 16:47:00,60.4,39.0,29.50,East,92,6.3,6.3,45,0.00,,FEW,0.00,VWS V14.00,2013-01-26 00:47:00,
2013-01-25 16:48:00,60.4,39.0,29.50,East,92,6.3,6.3,45,0.00,,FEW,0.00,VWS V14.00,2013-01-26 00:48:00,
2013-01-25 16:49:00,60.4,39.0,29.50,ESE,115,2.0,6.3,45,0.00,,FEW,0.00,VWS V14.00,2013-01-26 00:49:00,
2013-01-25 16:50:00,59.4,46.3,29.44,ENE,70,2.5,3.6,62,0.00,,FEW,0.00,VWS V14.00,2013-01-26 00:50:00,
2013-01-25 16:51:00,60.6,39.2,29.50,East,92,3.1,6.3,45,0.00,,FEW,0.00,VWS V14.00,2013-01-26 00:51:00,
2013-01-25 16:52:00,60.6,39.2,29.50,East,92,2.0,3.4,45,0.00,,FEW,0.00,VWS V14.00,2013-01-26 00:52:00,
2013-01-25 16:53:00,60.6,39.2,29.50,East,92,2.2,2.2,45,0.00,,FEW,0.00,VWS V14.00,2013-01-26 00:53:00,
2013-01-25 16:54:00,60.6,39.2,29.50,East,92,3.1,3.1,45,0.00,,FEW,0.00,VWS V14.00,2013-01-26 00:54:00,
2013-01-25 16:55:00,59.2,46.6,29.44,East,92,2.0,2.0,63,0.00,,FEW,0.00,VWS V14.00,2013-01-26 00:55:00,
2013-01-25 16:56:00,60.6,39.2,29.50,East,92,3.1,3.1,45,0.00,,FEW,0.00,VWS V14.00,2013-01-26 00:56:00,
2013-01-25 16:57:00,60.6,39.2,29.50,ESE,115,1.3,4.9,45,0.00,,FEW,0.00,VWS V14.00,2013-01-26 00:57:00,
2013-01-25 16:58:00,60.6,39.2,29.50,SE,138,4.7,4.7,45,0.00,,FEW,0.00,VWS V14.00,2013-01-26 00:58:00,
2013-01-25 16:59:00,60.6,39.2,29.50,East,92,4.5,4.7,45,0.00,,FEW,0.00,VWS V14.00,2013-01-26 00:59:00,
2013-01-25 17:00:00,59.4,46.3,29.44,ENE,70,0.0,0.0,62,0.00,,FEW,0.00,VWS V14.00,2013-01-26 01:00:00,
2013-01-25 17:01:00,60.6,38.6,29.50,SSE,160,3.6,4.0,44,0.00,,FEW,0.00,VWS V14.00,2013-01-26 01:01:00,
2013-01-25 17:02:00,60.6,38.6,29.50,East,92,2.5,3.6,44,0.00,,FEW,0.00,VWS V14.00,2013-01-26 01:02:00,
2013-01-25 17:03:00,60.6,38.6,29.47,NE,48,2.9,2.9,44,0.00,,FEW,0.00,VWS V14.00,2013-01-26 01:03:00,
2013-01-25 17:04:00,60.6,38.6,29.47,ESE,115,3.8,3.8,44,0.00,,FEW,0.00,VWS V14.00,2013-01-26 01:04:00,
2013-01-25 17:05:00,59.2,46.2,29.44,NE,48,6.0,6.0,62,0.00,,FEW,0.00,VWS V14.00,2013-01-26 01:05:00,
2013-01-25 17:06:00,60.6,38.6,29.47,East,92,3.4,3.8,44,0.00,,FEW,0.00,VWS V14.00,2013-01-26 01:06:00,
2013-01-25 17:07:00,60.6,38.6,29.47,SE,138,3.8,4.3,44,0.00,,FEW,0.00,VWS V14.00,2013-01-26 01:07:00,
2013-01-25 17:08:00,60.6,38.6,29.47,NE,48,2.9,3.8,44,0.00,,FEW,0.00,VWS V14.00,2013-01-26 01:08:00,
2013-01-25 17:09:00,60.6,38.6,29.47,NE,48,1.3,5.6,44,0.00,,FEW,0.00,VWS V14.00,2013-01-26 01:09:00,
2013-01-25 17:10:00,59.5,45.2,29.44,NE,48,4.7,4.7,59,0.00,,FEW,0.00,VWS V14.00,2013-01-26 01:10:00,
2013-01-25 17:11:00,60.6,38.0,29.47,ENE,70,4.0,4.0,43,0.00,,FEW,0.00,VWS V14.00,2013-01-26 01:11:00,
2013-01-25 17:12:00,60.6,38.0,29.47,ENE,70,4.0,4.0,43,0.00,,FEW,0.00,VWS V14.00,2013-01-26 01:12:00,
2013-01-25 17:13:00,60.6,38.0,29.47,East,92,3.8,4.0,43,0.00,,FEW,0.00,VWS V14.00,2013-01-26 01:13:00,
2013-01-25 17:14:00,60.6,37.4,29.47,ENE,70,9.0,9.0,42,0.00,,FEW,0.00,VWS V14.00,2013-01-26 01:14:00,
2013-01-25 17:15:00,59.5,44.8,29.44,East,92,3.6,3.6,58,0.00,,FEW,0.00,VWS V14.00,2013-01-26 01:15:00,
2013-01-25 17:16:00,60.6,37.4,29.47,East,92,3.8,6.0,42,0.00,,FEW,0.00,VWS V14.00,2013-01-26 01:16:00,
2013-01-25 17:17:00,60.8,37.6,29.47,South,182,4.0,6.0,42,0.00,,FEW,0.00,VWS V14.00,2013-01-26 01:17:00,
2013-01-25 17:18:00,60.8,37.0,29.50,ENE,70,3.4,4.0,41,0.00,,FEW,0.00,VWS V14.00,2013-01-26 01:18:00,
2013-01-25 17:19:00,60.8,37.0,29.50,ENE,70,3.4,3.4,41,0.00,,FEW,0.00,VWS V14.00,2013-01-26 01:19:00,
2013-01-25 17:20:00,59.7,44.0,29.41,NE,48,4.9,4.9,56,0.00,,FEW,0.00,VWS V14.00,2013-01-26 01:20:00,
2013-01-25 17:21:00,60.8,37.6,29.50,ESE,115,4.5,4.5,42,0.00,,FEW,0.00,VWS V14.00,2013-01-26 01:21:00,
2013-01-25 17:22:00,60.8,37.6,29.50,SE,138,6.5,6.5,42,0.00,,FEW,0.00,VWS V14.00,2013-01-26 01:22:00,
2013-01-25 17:23:00,60.8,37.6,29.50,ESE,115,4.9,7.8,42,0.00,,FEW,0.00,VWS V14.00,2013-01-26 01:23:00,
2013-01-25 17:24:00,60.8,37.0,29.50,NE,48,3.1,7.4,41,0.00,,FEW,0.00,VWS V14.00,2013-01-26 01:24:00,
2013-01-25 17:25:00,59.7,44.5,29.41,ENE,70,2.0,2.0,57,0.00,,FEW,0.00,VWS V14.00,2013-01-26 01:25:00,
2013-01-25 17:26:00,60.8,37.0,29.50,East,92,6.0,6.0,41,0.00,,FEW,0.00,VWS V14.00,2013-01-26 01:26:00,
2013-01-25 17:27:00,60.8,37.0,29.50,ENE,70,6.0,6.0,41,0.00,,FEW,0.00,VWS V14.00,2013-01-26 01:27:00,
2013-01-25 17:28:00,60.8,37.0,29.50,NE,48,3.4,6.0,41,0.00,,FEW,0.00,VWS V14.00,2013-01-26 01:28:00,
2013-01-25 17:29:00,60.8,37.0,29.50,NE,48,5.8,5.8,41,0.00,,FEW,0.00,VWS V14.00,2013-01-26 01:29:00,
2013-01-25 17:30:00,59.7,44.0,29.41,NE,48,4.0,4.0,56,0.00,,FEW,0.00,VWS V14.00,2013-01-26 01:30:00,
2013-01-25 17:31:00,60.8,37.0,29.50,ESE,115,3.6,3.6,41,0.00,,FEW,0.00,VWS V14.00,2013-01-26 01:31:00,
2013-01-25 17:32:00,60.8,37.0,29.50,ENE,70,3.4,4.3,41,0.00,,FEW,0.00,VWS V14.00,2013-01-26 01:32:00,
2013-01-25 17:33:00,60.8,37.0,29.50,East,92,4.3,4.3,41,0.00,,FEW,0.00,VWS V14.00,2013-01-26 01:33:00,
2013-01-25 17:34:00,60.8,37.0,29.50,East,92,4.3,4.3,41,0.00,,FEW,0.00,VWS V14.00,2013-01-26 01:34:00,
2013-01-25 17:35:00,59.9,43.2,29.44,NE,48,4.3,4.3,54,0.00,,FEW,0.00,VWS V14.00,2013-01-26 01:35:00,
2013-01-25 17:36:00,60.8,37.0,29.50,ENE,70,3.6,4.3,41,0.00,,FEW,0.00,VWS V14.00,2013-01-26 01:36:00,
2013-01-25 17:37:00,60.8,36.3,29.50,NE,48,6.0,8.1,40,0.00,,FEW,0.00,VWS V14.00,2013-01-26 01:37:00,
2013-01-25 17:38:00,60.8,36.3,29.50,East,92,2.5,6.0,40,0.00,,FEW,0.00,VWS V14.00,2013-01-26 01:38:00,
2013-01-25 17:39:00,60.8,36.3,29.50,SE,138,3.8,5.4,40,0.00,,FEW,0.00,VWS V14.00,2013-01-26 01:39:00,
2013-01-25 17:40:00,60.1,42.9,29.44,NE,48,4.9,5.4,53,0.00,,FEW,0.00,VWS V14.00,2013-01-26 01:40:00,
2013-01-25 17:41:00,61.0,36.5,29.50,East,92,4.7,9.4,40,0.00,,FEW,0.00,VWS V14.00,2013-01-26 01:41:00,
2013-01-25 17:42:00,61.2,36.7,29.50,NE,48,5.6,5.6,40,0.00,,FEW,0.00,VWS V14.00,2013-01-26 01:42:00,
2013-01-25 17:43:00,61.2,36.7,29.50,NE,48,5.6,5.6,40,0.00,,FEW,0.00,VWS V14.00,2013-01-26 01:43:00,
2013-01-25 17:44:00,61.2,36.7,29.50,ENE,70,4.9,5.6,40,0.00,,FEW,0.00,VWS V14.00,2013-01-26 01:44:00,
2013-01-25 17:45:00,60.3,43.1,29.44,East,92,4.3,4.3,53,0.00,,FEW,0.00,VWS V14.00,2013-01-26 01:45:00,
2013-01-25 17:47:00,61.2,36.0,29.50,East,92,3.6,4.9,39,0.00,,FEW,0.00,VWS V14.00,2013-01-26 01:47:00,
2013-01-25 17:48:00,61.2,36.0,29.50,North,2,5.8,5.8,39,0.00,,FEW,0.00,VWS V14.00,2013-01-26 01:48:00,
2013-01-25 17:49:00,61.2,36.0,29.50,North,2,4.3,11.0,39,0.00,,FEW,0.00,VWS V14.00,2013-01-26 01:49:00,
2013-01-25 17:50:00,60.1,43.4,29.44,NE,48,4.0,4.7,54,0.00,,FEW,0.00,VWS V14.00,2013-01-26 01:50:00,
2013-01-25 17:51:00,61.2,36.0,29.50,ENE,70,2.0,2.0,39,0.00,,FEW,0.00,VWS V14.00,2013-01-26 01:51:00,
2013-01-25 17:52:00,61.2,36.7,29.50,NE,48,3.8,6.3,40,0.00,,FEW,0.00,VWS V14.00,2013-01-26 01:52:00,
2013-01-25 17:53:00,61.2,36.7,29.50,NNE,25,7.8,7.8,40,0.00,,FEW,0.00,VWS V14.00,2013-01-26 01:53:00,
2013-01-25 17:54:00,61.3,36.2,29.50,SSE,160,6.5,7.8,39,0.00,,FEW,0.00,VWS V14.00,2013-01-26 01:54:00,
2013-01-25 17:55:00,59.5,44.3,29.44,NE,48,3.1,3.1,57,0.00,,FEW,0.00,VWS V14.00,2013-01-26 01:55:00,
2013-01-25 17:56:00,61.2,36.7,29.50,NNE,25,6.3,6.3,40,0.00,,FEW,0.00,VWS V14.00,2013-01-26 01:56:00,
2013-01-25 17:57:00,61.3,36.2,29.50,NE,48,7.6,7.6,39,0.00,,FEW,0.00,VWS V14.00,2013-01-26 01:57:00,
2013-01-25 17:58:00,61.3,36.2,29.50,SE,138,2.7,7.6,39,0.00,,FEW,0.00,VWS V14.00,2013-01-26 01:58:00,
2013-01-25 17:59:00,61.3,36.2,29.50,NE,48,3.8,4.5,39,0.00,,FEW,0.00,VWS V14.00,2013-01-26 01:59:00,
2013-01-25 18:00:00,59.2,44.9,29.44,ENE,70,2.0,2.9,59,0.00,,FEW,0.00,VWS V14.00,2013-01-26 02:00:00,
2013-01-25 18:01:00,61.3,36.2,29.50,NE,48,5.6,5.6,39,0.00,,FEW,0.00,VWS V14.00,2013-01-26 02:01:00,
2013-01-25 18:02:00,61.3,36.2,29.50,NE,48,5.6,5.6,39,0.00,,FEW,0.00,VWS V14.00,2013-01-26 02:02:00,
2013-01-25 18:03:00,61.3,36.2,29.50,SSE,160,4.0,5.8,39,0.00,,FEW,0.00,VWS V14.00,2013-01-26 02:03:00,
2013-01-25 18:04:00,61.3,36.2,29.50,East,92,8.7,8.7,39,0.00,,FEW,0.00,VWS V14.00,2013-01-26 02:04:00,
2013-01-25 18:05:00,58.5,46.8,29.44,NE,48,3.4,3.4,65,0.00,,FEW,0.00,VWS V14.00,2013-01-26 02:05:00,
2013-01-25 18:06:00,61.3,36.2,29.50,NE,48,7.2,8.1,39,0.00,,FEW,0.00,VWS V14.00,2013-01-26 02:06:00,
2013-01-25 18:07:00,61.3,36.2,29.50,South,182,4.7,7.2,39,0.00,,FEW,0.00,VWS V14.00,2013-01-26 02:07:00,
2013-01-25 18:08:00,61.3,36.2,29.50,SE,138,4.3,4.7,39,0.00,,FEW,0.00,VWS V14.00,2013-01-26 02:08:00,
2013-01-25 18:09:00,61.3,36.2,29.50,NE,48,6.0,6.0,39,0.00,,FEW,0.00,VWS V14.00,2013-01-26 02:09:00,
2013-01-25 18:10:00,57.9,46.2,29.44,SE,138,1.6,1.6,65,0.00,,FEW,0.00,VWS V14.00,2013-01-26 02:10:00,
2013-01-25 18:11:00,61.3,36.2,29.50,North,2,7.4,7.4,39,0.00,,FEW,0.00,VWS V14.00,2013-01-26 02:11:00,
2013-01-25 18:12:00,61.3,36.2,29.50,North,2,7.4,7.4,39,0.00,,FEW,0.00,VWS V14.00,2013-01-26 02:12:00,
2013-01-25 18:13:00,61.3,36.2,29.50,North,2,7.4,7.4,39,0.00,,FEW,0.00,VWS V14.00,2013-01-26 02:13:00,
2013-01-25 18:14:00,61.3,36.2,29.50,North,2,7.4,7.4,39,0.00,,FEW,0.00,VWS V14.00,2013-01-26 02:14:00,
2013-01-25 18:15:00,57.7,47.7,29.44,SE,138,2.0,2.0,69,0.00,,FEW,0.00,VWS V14.00,2013-01-26 02:15:00,
2013-01-25 18:16:00,61.5,36.3,29.50,South,182,4.3,5.8,39,0.00,,FEW,0.00,VWS V14.00,2013-01-26 02:16:00,
2013-01-25 18:17:00,61.3,36.2,29.50,NE,48,3.4,4.3,39,0.00,,FEW,0.00,VWS V14.00,2013-01-26 02:17:00,
2013-01-25 18:18:00,61.3,36.2,29.50,ENE,70,4.0,4.0,39,0.00,,FEW,0.00,VWS V14.00,2013-01-26 02:18:00,
2013-01-25 18:19:00,61.3,36.2,29.50,SE,138,4.9,4.9,39,0.00,,FEW,0.00,VWS V14.00,2013-01-26 02:19:00,
2013-01-25 18:20:00,57.6,47.5,29.44,SE,138,2.5,2.5,69,0.04,,FEW,0.04,VWS V14.00,2013-01-26 02:20:00,
2013-01-25 18:21:00,61.3,36.2,29.50,East,92,1.3,3.4,39,0.00,,FEW,0.00,VWS V14.00,2013-01-26 02:21:00,
2013-01-25 18:22:00,61.3,36.2,29.50,NE,48,1.3,1.3,39,0.00,,FEW,0.00,VWS V14.00,2013-01-26 02:22:00,
2013-01-25 18:23:00,61.3,36.2,29.50,East,92,4.0,5.6,39,0.00,,FEW,0.00,VWS V14.00,2013-01-26 02:23:00,
2013-01-25 18:24:00,61.3,36.2,29.50,East,92,4.0,4.0,39,0.00,,FEW,0.00,VWS V14.00,2013-01-26 02:24:00,
2013-01-25 18:25:00,57.6,49.0,29.44,SE,138,2.5,2.5,73,0.04,,FEW,0.04,VWS V14.00,2013-01-26 02:25:00,
2013-01-25 18:26:00,61.3,36.2,29.50,East,92,4.0,4.0,39,0.00,,FEW,0.00,VWS V14.00,2013-01-26 02:26:00,
2013-01-25 18:27:00,61.3,36.2,29.50,NE,48,2.7,4.0,39,0.00,,FEW,0.00,VWS V14.00,2013-01-26 02:27:00,
2013-01-25 18:28:00,61.3,36.2,29.50,SE,138,4.3,5.8,39,0.00,,FEW,0.00,VWS V14.00,2013-01-26 02:28:00,
2013-01-25 18:29:00,61.3,36.2,29.50,NE,48,2.5,4.3,39,0.00,,FEW,0.00,VWS V14.00,2013-01-26 02:29:00,
2013-01-25 18:30:00,57.6,49.0,29.44,SE,138,2.9,2.9,73,0.04,,FEW,0.04,VWS V14.00,2013-01-26 02:30:00,
2013-01-25 18:31:00,61.3,36.2,29.50,NNW,340,2.5,3.6,39,0.00,,FEW,0.00,VWS V14.00,2013-01-26 02:31:00,
2013-01-25 18:32:00,61.3,36.2,29.50,NE,48,6.0,6.9,39,0.00,,FEW,0.00,VWS V14.00,2013-01-26 02:32:00,
2013-01-25 18:33:00,61.3,36.2,29.50,NE,48,4.0,6.0,39,0.00,,FEW,0.00,VWS V14.00,2013-01-26 02:33:00,
2013-01-25 18:34:00,61.2,36.0,29.50,NE,48,4.0,4.0,39,0.00,,FEW,0.00,VWS V14.00,2013-01-26 02:34:00,
2013-01-25 18:35:00,57.6,48.6,29.44,SE,138,2.9,2.9,72,0.04,,FEW,0.04,VWS V14.00,2013-01-26 02:35:00,
2013-01-25 18:36:00,61.3,35.5,29.50,ENE,70,8.7,8.7,38,0.00,,FEW,0.00,VWS V14.00,2013-01-26 02:36:00,
2013-01-25 18:37:00,61.3,35.5,29.50,ENE,70,6.0,8.7,38,0.00,,FEW,0.00,VWS V14.00,2013-01-26 02:37:00,
2013-01-25 18:38:00,61.3,35.5,29.50,North,2,7.8,10.1,38,0.00,,FEW,0.00,VWS V14.00,2013-01-26 02:38:00,
2013-01-25 18:39:00,61.3,35.5,29.50,North,2,7.8,7.8,38,0.00,,FEW,0.00,VWS V14.00,2013-01-26 02:39:00,
2013-01-25 18:40:00,57.4,48.4,29.44,SE,138,2.5,2.5,72,0.04,,FEW,0.04,VWS V14.00,2013-01-26 02:40:00,
2013-01-25 18:41:00,61.3,35.5,29.50,NNE,25,4.9,4.9,38,0.00,,FEW,0.00,VWS V14.00,2013-01-26 02:41:00,
2013-01-25 18:42:00,61.3,35.5,29.50,NE,48,6.3,6.3,38,0.00,,FEW,0.00,VWS V14.00,2013-01-26 02:42:00,
2013-01-25 18:43:00,61.3,35.5,29.50,NE,48,6.3,6.3,38,0.00,,FEW,0.00,VWS V14.00,2013-01-26 02:43:00,
2013-01-25 18:44:00,61.2,35.4,29.50,NNE,25,6.3,7.2,38,0.00,,FEW,0.00,VWS V14.00,2013-01-26 02:44:00,
2013-01-25 18:45:00,57.2,48.3,29.44,East,92,0.0,0.0,72,0.04,,FEW,0.04,VWS V14.00,2013-01-26 02:45:00,
2013-01-25 18:46:00,61.3,36.2,29.50,SE,138,7.4,7.4,39,0.00,,FEW,0.00,VWS V14.00,2013-01-26 02:46:00,
2013-01-25 18:47:00,61.3,36.2,29.50,NE,48,5.4,7.4,39,0.00,,FEW,0.00,VWS V14.00,2013-01-26 02:47:00,
2013-01-25 18:48:00,61.3,35.5,29.50,East,92,7.6,8.1,38,0.00,,FEW,0.00,VWS V14.00,2013-01-26 02:48:00,
2013-01-25 18:49:00,61.3,35.5,29.50,NNE,25,7.6,7.6,38,0.00,,FEW,0.00,VWS V14.00,2013-01-26 02:49:00,
2013-01-25 18:50:00,57.2,49.0,29.44,East,92,2.5,2.5,74,0.04,,FEW,0.04,VWS V14.00,2013-01-26 02:50:00,
2013-01-25 18:51:00,61.3,36.2,29.50,East,92,8.7,8.7,39,0.00,,FEW,0.00,VWS V14.00,2013-01-26 02:51:00,
2013-01-25 18:52:00,61.3,36.2,29.50,SE,138,6.5,8.7,39,0.00,,FEW,0.00,VWS V14.00,2013-01-26 02:52:00,
2013-01-25 18:53:00,61.3,36.2,29.50,SE,138,6.5,6.5,39,0.00,,FEW,0.00,VWS V14.00,2013-01-26 02:53:00,
2013-01-25 18:54:00,61.3,36.2,29.50,NE,48,10.3,10.3,39,0.00,,FEW,0.00,VWS V14.00,2013-01-26 02:54:00,
2013-01-25 18:55:00,57.2,49.7,29.44,East,92,2.5,2.5,76,0.04,,FEW,0.04,VWS V14.00,2013-01-26 02:55:00,
2013-01-25 18:56:00,61.2,36.0,29.50,NE,48,10.1,10.1,39,0.00,,FEW,0.00,VWS V14.00,2013-01-26 02:56:00,
2013-01-25 18:57:00,61.2,36.0,29.50,NE,48,10.1,10.1,39,0.00,,FEW,0.00,VWS V14.00,2013-01-26 02:57:00,
2013-01-25 18:58:00,60.8,36.3,29.50,NE,48,7.2,10.1,40,0.00,,FEW,0.00,VWS V14.00,2013-01-26 02:58:00,
2013-01-25 18:59:00,60.8,36.3,29.50,East,92,9.6,9.6,40,0.00,,FEW,0.00,VWS V14.00,2013-01-26 02:59:00,
2013-01-25 19:00:00,57.2,50.1,29.44,NE,48,3.1,3.1,77,0.04,,FEW,0.04,VWS V14.00,2013-01-26 03:00:00,
2013-01-25 19:01:00,60.6,36.8,29.50,ESE,115,6.0,9.4,41,0.00,,FEW,0.00,VWS V14.00,2013-01-26 03:01:00,
2013-01-25 19:02:00,60.6,36.8,29.50,East,92,6.0,6.0,41,0.00,,FEW,0.00,VWS V14.00,2013-01-26 03:02:00,
2013-01-25 19:03:00,60.6,36.8,29.50,East,92,6.5,6.5,41,0.00,,FEW,0.00,VWS V14.00,2013-01-26 03:03:00,
2013-01-25 19:04:00,60.4,36.7,29.50,NE,48,12.5,12.5,41,0.00,,FEW,0.00,VWS V14.00,2013-01-26 03:04:00,
2013-01-25 19:05:00,57.6,49.3,29.44,NE,48,3.8,3.8,74,0.04,,FEW,0.04,VWS V14.00,2013-01-26 03:05:00,
2013-01-25 19:06:00,60.4,36.7,29.50,East,92,8.1,8.1,41,0.00,,FEW,0.00,VWS V14.00,2013-01-26 03:06:00,
2013-01-25 19:07:00,60.4,36.7,29.50,East,92,8.1,8.1,41,0.00,,FEW,0.00,VWS V14.00,2013-01-26 03:07:00,
2013-01-25 19:08:00,60.4,36.7,29.50,East,92,8.1,8.1,41,0.00,,FEW,0.00,VWS V14.00,2013-01-26 03:08:00,
2013-01-25 19:09:00,60.4,36.7,29.50,East,92,8.1,8.1,41,0.00,,FEW,0.00,VWS V14.00,2013-01-26 03:09:00,
2013-01-25 19:10:00,57.6,49.3,29.44,South,182,3.1,3.1,74,0.04,,FEW,0.04,VWS V14.00,2013-01-26 03:10:00,
2013-01-25 19:11:00,60.6,36.8,29.50,East,92,8.7,8.7,41,0.00,,FEW,0.00,VWS V14.00,2013-01-26 03:11:00,
2013-01-25 19:12:00,60.6,36.8,29.50,East,92,8.7,8.7,41,0.00,,FEW,0.00,VWS V14.00,2013-01-26 03:12:00,
2013-01-25 19:13:00,60.6,36.8,29.50,East,92,8.7,8.7,41,0.00,,FEW,0.00,VWS V14.00,2013-01-26 03:13:00,
2013-01-25 19:14:00,60.6,36.2,29.50,NE,48,7.6,8.7,40,0.00,,FEW,0.00,VWS V14.00,2013-01-26 03:14:00,
2013-01-25 19:15:00,57.6,49.0,29.44,East,92,2.7,2.7,73,0.04,,FEW,0.04,VWS V14.00,2013-01-26 03:15:00,
2013-01-25 19:16:00,60.6,36.2,29.50,NE,48,7.6,7.6,40,0.00,,FEW,0.00,VWS V14.00,2013-01-26 03:16:00,
2013-01-25 19:17:00,60.6,36.2,29.50,NE,48,7.6,7.6,40,0.00,,FEW,0.00,VWS V14.00,2013-01-26 03:17:00,
2013-01-25 19:18:00,61.0,35.9,29.50,NE,48,7.6,7.6,39,0.00,,FEW,0.00,VWS V14.00,2013-01-26 03:18:00,
2013-01-25 19:19:00,61.0,35.9,29.50,ENE,70,3.4,7.6,39,0.00,,FEW,0.00,VWS V14.00,2013-01-26 03:19:00,
2013-01-25 19:20:00,57.6,48.6,29.44,East,92,1.3,1.3,72,0.00,,FEW,0.04,VWS V14.00,2013-01-26 03:20:00,
2013-01-25 19:21:00,61.0,35.9,29.50,NE,48,7.2,7.2,39,0.00,,FEW,0.00,VWS V14.00,2013-01-26 03:21:00,
2013-01-25 19:22:00,61.0,35.9,29.50,NE,48,7.2,7.2,39,0.00,,FEW,0.00,VWS V14.00,2013-01-26 03:22:00,
2013-01-25 19:23:00,61.0,35.9,29.50,NE,48,7.2,7.2,39,0.00,,FEW,0.00,VWS V14.00,2013-01-26 03:23:00,
2013-01-25 19:24:00,61.0,35.9,29.50,NE,48,7.2,7.2,39,0.00,,FEW,0.00,VWS V14.00,2013-01-26 03:24:00,
2013-01-25 19:25:00,57.6,48.6,29.44,NE,48,2.7,2.7,72,0.00,,FEW,0.04,VWS V14.00,2013-01-26 03:25:00,
2013-01-25 19:26:00,61.0,35.9,29.50,East,92,9.6,9.6,39,0.00,,FEW,0.00,VWS V14.00,2013-01-26 03:26:00,
2013-01-25 19:27:00,61.0,35.9,29.50,East,92,9.6,9.6,39,0.00,,FEW,0.00,VWS V14.00,2013-01-26 03:27:00,
2013-01-25 19:28:00,61.2,36.0,29.50,East,92,9.6,9.6,39,0.00,,FEW,0.00,VWS V14.00,2013-01-26 03:28:00,
2013-01-25 19:29:00,61.2,36.0,29.50,ESE,115,5.6,9.6,39,0.00,,FEW,0.00,VWS V14.00,2013-01-26 03:29:00,
2013-01-25 19:30:00,57.7,48.4,29.44,ENE,70,3.1,3.4,71,0.00,,FEW,0.04,VWS V14.00,2013-01-26 03:30:00,
2013-01-25 19:31:00,61.2,36.0,29.50,SE,138,6.5,8.7,39,0.00,,FEW,0.00,VWS V14.00,2013-01-26 03:31:00,
2013-01-25 19:32:00,61.2,36.0,29.50,ENE,70,10.5,10.5,39,0.00,,FEW,0.00,VWS V14.00,2013-01-26 03:32:00,
2013-01-25 19:33:00,61.2,35.4,29.50,North,2,11.9,11.9,38,0.00,,FEW,0.00,VWS V14.00,2013-01-26 03:33:00,
2013-01-25 19:34:00,61.2,35.4,29.50,NE,48,9.0,11.9,38,0.00,,FEW,0.00,VWS V14.00,2013-01-26 03:34:00,
2013-01-25 19:35:00,57.9,48.2,29.44,NE,48,3.4,3.4,70,0.00,,FEW,0.04,VWS V14.00,2013-01-26 03:35:00,
2013-01-25 19:36:00,61.2,35.4,29.50,NNE,25,7.6,7.6,38,0.00,,FEW,0.00,VWS V14.00,2013-01-26 03:36:00,
2013-01-25 19:37:00,61.2,35.4,29.50,East,92,5.4,7.6,38,0.00,,FEW,0.00,VWS V14.00,2013-01-26 03:37:00,
2013-01-25 19:38:00,61.2,35.4,29.50,East,92,12.3,12.3,38,0.00,,FEW,0.00,VWS V14.00,2013-01-26 03:38:00,
2013-01-25 19:39:00,61.2,35.4,29.50,NE,48,8.5,12.3,38,0.00,,FEW,0.00,VWS V14.00,2013-01-26 03:39:00,
2013-01-25 19:40:00,57.9,48.2,29.44,East,92,2.0,2.5,70,0.00,,FEW,0.04,VWS V14.00,2013-01-26 03:40:00,
2013-01-25 19:41:00,61.2,36.0,29.50,East,92,5.8,6.3,39,0.00,,FEW,0.00,VWS V14.00,2013-01-26 03:41:00,
2013-01-25 19:42:00,61.2,36.0,29.50,ENE,70,6.3,6.3,39,0.00,,FEW,0.00,VWS V14.00,2013-01-26 03:42:00,
2013-01-25 19:43:00,61.2,35.4,29.50,NE,48,6.3,8.7,38,0.00,,FEW,0.00,VWS V14.00,2013-01-26 03:43:00,
2013-01-25 19:44:00,61.2,35.4,29.50,North,2,6.0,10.1,38,0.00,,FEW,0.00,VWS V14.00,2013-01-26 03:44:00,
2013-01-25 19:45:00,57.9,48.2,29.44,East,92,2.5,3.6,70,0.00,,FEW,0.04,VWS V14.00,2013-01-26 03:45:00,
2013-01-25 19:46:00,61.2,35.4,29.50,NE,48,7.4,10.1,38,0.00,,FEW,0.00,VWS V14.00,2013-01-26 03:46:00,
2013-01-25 19:47:00,61.3,35.5,29.50,NE,48,7.4,7.4,38,0.00,,FEW,0.00,VWS V14.00,2013-01-26 03:47:00,
2013-01-25 19:48:00,61.3,35.5,29.47,North,2,4.9,7.4,38,0.00,,FEW,0.00,VWS V14.00,2013-01-26 03:48:00,
2013-01-25 19:49:00,61.3,35.5,29.47,NE,48,6.9,6.9,38,0.00,,FEW,0.00,VWS V14.00,2013-01-26 03:49:00,
2013-01-25 19:50:00,57.7,48.0,29.41,East,92,3.1,3.8,70,0.00,,FEW,0.04,VWS V14.00,2013-01-26 03:50:00,
2013-01-25 19:51:00,61.3,35.5,29.47,NE,48,6.3,6.7,38,0.00,,FEW,0.00,VWS V14.00,2013-01-26 03:51:00,
2013-01-25 19:52:00,61.3,35.5,29.47,SE,138,7.8,7.8,38,0.00,,FEW,0.00,VWS V14.00,2013-01-26 03:52:00,
2013-01-25 19:53:00,61.3,35.5,29.47,NE,48,4.9,7.8,38,0.00,,FEW,0.00,VWS V14.00,2013-01-26 03:53:00,
2013-01-25 19:54:00,61.3,35.5,29.47,NE,48,5.8,5.8,38,0.00,,FEW,0.00,VWS V14.00,2013-01-26 03:54:00,
2013-01-25 19:55:00,57.7,48.0,29.41,East,92,0.0,2.5,70,0.00,,FEW,0.04,VWS V14.00,2013-01-26 03:55:00,
2013-01-25 19:56:00,61.3,35.5,29.47,NE,48,5.4,5.4,38,0.00,,FEW,0.00,VWS V14.00,2013-01-26 03:56:00,
2013-01-25 19:57:00,61.3,35.5,29.47,NE,48,5.8,6.3,38,0.00,,FEW,0.00,VWS V14.00,2013-01-26 03:57:00,
2013-01-25 19:58:00,61.3,35.5,29.47,NE,48,5.8,5.8,38,0.00,,FEW,0.00,VWS V14.00,2013-01-26 03:58:00,
2013-01-25 19:59:00,61.3,35.5,29.47,NNE,25,3.8,5.8,38,0.00,,FEW,0.00,VWS V14.00,2013-01-26 03:59:00,
2013-01-25 20:00:00,57.7,48.0,29.41,SSE,160,0.9,2.7,70,0.00,,FEW,0.04,VWS V14.00,2013-01-26 04:00:00,
2013-01-25 20:01:00,61.3,35.5,29.47,NE,48,8.5,8.5,38,0.00,,FEW,0.00,VWS V14.00,2013-01-26 04:01:00,
2013-01-25 20:02:00,61.3,35.5,29.47,NE,48,7.6,8.5,38,0.00,,FEW,0.00,VWS V14.00,2013-01-26 04:02:00,
2013-01-25 20:03:00,61.3,35.5,29.47,NE,48,7.6,7.6,38,0.00,,FEW,0.00,VWS V14.00,2013-01-26 04:03:00,
2013-01-25 20:04:00,61.3,35.5,29.50,SE,138,4.0,7.6,38,0.00,,FEW,0.00,VWS V14.00,2013-01-26 04:04:00,
2013-01-25 20:05:00,57.7,48.0,29.41,East,92,2.0,2.0,70,0.00,,FEW,0.04,VWS V14.00,2013-01-26 04:05:00,
2013-01-25 20:06:00,61.3,35.5,29.50,East,92,2.7,5.4,38,0.00,,FEW,0.00,VWS V14.00,2013-01-26 04:06:00,
2013-01-25 20:07:00,61.3,35.5,29.50,NE,48,4.7,4.7,38,0.00,,FEW,0.00,VWS V14.00,2013-01-26 04:07:00,
2013-01-25 20:08:00,61.3,35.5,29.50,East,92,5.8,5.8,38,0.00,,FEW,0.00,VWS V14.00,2013-01-26 04:08:00,
2013-01-25 20:09:00,61.3,35.5,29.50,East,92,10.3,11.0,38,0.00,,FEW,0.00,VWS V14.00,2013-01-26 04:09:00,
2013-01-25 20:10:00,57.9,48.2,29.41,East,92,2.0,3.8,70,0.00,,FEW,0.04,VWS V14.00,2013-01-26 04:10:00,
2013-01-25 20:11:00,61.3,35.5,29.50,East,92,4.9,10.3,38,0.00,,FEW,0.00,VWS V14.00,2013-01-26 04:11:00,
2013-01-25 20:12:00,61.3,35.5,29.50,East,92,4.0,4.9,38,0.00,,FEW,0.00,VWS V14.00,2013-01-26 04:12:00,
2013-01-25 20:13:00,61.3,35.5,29.50,East,92,1.6,4.0,38,0.00,,FEW,0.00,VWS V14.00,2013-01-26 04:13:00,
2013-01-25 20:14:00,61.3,35.5,29.50,NE,48,1.1,1.6,38,0.00,,FEW,0.00,VWS V14.00,2013-01-26 04:14:00,
2013-01-25 20:15:00,57.9,48.2,29.41,SE,138,2.7,3.8,70,0.00,,FEW,0.04,VWS V14.00,2013-01-26 04:15:00,
2013-01-25 20:16:00,61.3,35.5,29.50,NE,48,3.8,3.8,38,0.00,,FEW,0.00,VWS V14.00,2013-01-26 04:16:00,
2013-01-25 20:17:00,61.3,35.5,29.50,NE,48,3.8,3.8,38,0.00,,FEW,0.00,VWS V14.00,2013-01-26 04:17:00,
2013-01-25 20:18:00,61.3,35.5,29.50,NE,48,3.6,3.8,38,0.00,,FEW,0.00,VWS V14.00,2013-01-26 04:18:00,
2013-01-25 20:19:00,57.9,48.2,29.41,East,92,2.5,2.5,70,0.00,,FEW,0.04,VWS V14.00,2013-01-26 04:19:00,
2013-01-25 20:20:00,61.3,35.5,29.50,East,92,2.0,6.3,38,0.00,,FEW,0.00,VWS V14.00,2013-01-26 04:20:00,
2013-01-25 20:21:00,61.3,35.5,29.50,NE,48,9.6,9.6,38,0.00,,FEW,0.00,VWS V14.00,2013-01-26 04:21:00,
2013-01-25 20:22:00,61.3,35.5,29.50,NE,48,9.6,9.6,38,0.00,,FEW,0.00,VWS V14.00,2013-01-26 04:22:00,
2013-01-25 20:23:00,61.3,35.5,29.50,East,92,7.8,9.6,38,0.00,,FEW,0.00,VWS V14.00,2013-01-26 04:23:00,
2013-01-25 20:24:00,57.9,47.8,29.41,NE,48,2.5,3.4,69,0.00,,FEW,0.04,VWS V14.00,2013-01-26 04:24:00,
2013-01-25 20:25:00,61.3,35.5,29.50,East,92,5.6,9.8,38,0.00,,FEW,0.00,VWS V14.00,2013-01-26 04:25:00,
2013-01-25 20:26:00,61.3,35.5,29.50,NE,48,6.5,6.5,38,0.00,,FEW,0.00,VWS V14.00,2013-01-26 04:26:00,
2013-01-25 20:27:00,61.3,35.5,29.50,East,92,5.4,6.5,38,0.00,,FEW,0.00,VWS V14.00,2013-01-26 04:27:00,
2013-01-25 20:28:00,61.3,35.5,29.50,East,92,5.4,5.4,38,0.00,,FEW,0.00,VWS V14.00,2013-01-26 04:28:00,
2013-01-25 20:29:00,58.1,48.4,29.41,NE,48,2.5,3.4,70,0.00,,FEW,0.04,VWS V14.00,2013-01-26 04:29:00,
2013-01-25 20:30:00,61.3,35.5,29.50,NE,48,10.5,10.5,38,0.00,,FEW,0.00,VWS V14.00,2013-01-26 04:30:00,
2013-01-25 20:31:00,61.3,35.5,29.50,NE,48,10.5,10.5,38,0.00,,FEW,0.00,VWS V14.00,2013-01-26 04:31:00,
2013-01-25 20:32:00,61.3,35.5,29.50,NE,48,6.3,10.5,38,0.00,,FEW,0.00,VWS V14.00,2013-01-26 04:32:00,
2013-01-25 20:33:00,61.3,35.5,29.50,NE,48,7.4,7.6,38,0.00,,FEW,0.00,VWS V14.00,2013-01-26 04:33:00,
2013-01-25 20:34:00,58.5,48.0,29.38,NE,48,2.5,2.5,68,0.00,,FEW,0.04,VWS V14.00,2013-01-26 04:34:00,
2013-01-25 20:35:00,61.0,36.5,29.50,East,92,5.6,5.6,40,0.00,,FEW,0.00,VWS V14.00,2013-01-26 04:35:00,
2013-01-25 20:36:00,61.0,36.5,29.50,NE,48,5.4,5.6,40,0.00,,FEW,0.00,VWS V14.00,2013-01-26 04:36:00,
2013-01-25 20:37:00,61.0,36.5,29.50,NE,48,9.4,9.4,40,0.00,,FEW,0.00,VWS V14.00,2013-01-26 04:37:00,
2013-01-25 20:38:00,61.0,36.5,29.50,NE,48,9.4,9.4,40,0.00,,FEW,0.00,VWS V14.00,2013-01-26 04:38:00,
2013-01-25 20:39:00,58.6,46.9,29.38,East,92,1.1,3.6,65,0.00,,FEW,0.04,VWS V14.00,2013-01-26 04:39:00,
2013-01-25 20:40:00,61.0,36.5,29.50,NE,48,3.1,9.4,40,0.00,,FEW,0.00,VWS V14.00,2013-01-26 04:40:00,
2013-01-25 20:41:00,61.0,36.5,29.50,East,92,4.3,4.9,40,0.00,,FEW,0.00,VWS V14.00,2013-01-26 04:41:00,
2013-01-25 20:42:00,60.6,37.4,29.50,East,92,4.9,6.5,42,0.00,,FEW,0.00,VWS V14.00,2013-01-26 04:42:00,
2013-01-25 20:43:00,60.6,37.4,29.50,SE,138,5.8,5.8,42,0.00,,FEW,0.00,VWS V14.00,2013-01-26 04:43:00,
2013-01-25 20:44:00,58.6,47.3,29.38,East,92,0.0,1.6,66,0.00,,FEW,0.04,VWS V14.00,2013-01-26 04:44:00,
2013-01-25 20:45:00,60.8,37.0,29.50,NE,48,9.8,9.8,41,0.00,,FEW,0.00,VWS V14.00,2013-01-26 04:45:00,
2013-01-25 20:46:00,60.8,37.0,29.50,East,92,6.7,9.8,41,0.00,,FEW,0.00,VWS V14.00,2013-01-26 04:46:00,
2013-01-25 20:47:00,60.8,37.0,29.50,NE,48,10.7,10.7,41,0.00,,FEW,0.00,VWS V14.00,2013-01-26 04:47:00,
2013-01-25 20:48:00,60.8,37.0,29.53,NE,48,10.7,10.7,41,0.00,,FEW,0.00,VWS V14.00,2013-01-26 04:48:00,
2013-01-25 20:49:00,58.6,47.3,29.41,ENE,70,2.5,3.8,66,0.00,,FEW,0.04,VWS V14.00,2013-01-26 04:49:00,
2013-01-25 20:50:00,60.8,37.0,29.53,East,92,6.0,7.6,41,0.00,,FEW,0.00,VWS V14.00,2013-01-26 04:50:00,
2013-01-25 20:51:00,60.8,37.6,29.53,NE,48,9.8,9.8,42,0.00,,FEW,0.00,VWS V14.00,2013-01-26 04:51:00,
2013-01-25 20:52:00,60.8,37.6,29.53,NE,48,10.1,10.1,42,0.00,,FEW,0.00,VWS V14.00,2013-01-26 04:52:00,
2013-01-25 20:53:00,60.8,37.6,29.53,NE,48,8.1,10.1,42,0.00,,FEW,0.00,VWS V14.00,2013-01-26 04:53:00,
2013-01-25 20:54:00,58.5,47.2,29.41,East,92,4.3,4.3,66,0.00,,FEW,0.04,VWS V14.00,2013-01-26 04:54:00,
2013-01-25 20:55:00,60.8,37.6,29.53,ENE,70,6.0,6.0,42,0.00,,FEW,0.00,VWS V14.00,2013-01-26 04:55:00,
2013-01-25 20:56:00,60.8,37.6,29.53,NE,48,7.6,10.7,42,0.00,,FEW,0.00,VWS V14.00,2013-01-26 04:56:00,
2013-01-25 20:57:00,60.8,37.6,29.53,ENE,70,6.3,7.6,42,0.00,,FEW,0.00,VWS V14.00,2013-01-26 04:57:00,
2013-01-25 20:58:00,60.8,37.6,29.53,East,92,9.4,9.4,42,0.00,,FEW,0.00,VWS V14.00,2013-01-26 04:58:00,
2013-01-25 20:59:00,58.8,47.1,29.41,North,2,4.7,4.7,65,0.00,,FEW,0.04,VWS V14.00,2013-01-26 04:59:00,
2013-01-25 21:00:00,58.8,47.1,29.41,North,2,4.7,4.7,65,0.00,,FEW,0.04,VWS V14.00,2013-01-26 05:00:00,
2013-01-25 21:01:00,60.8,37.6,29.53,East,92,9.4,9.4,42,0.00,,FEW,0.00,VWS V14.00,2013-01-26 05:01:00,
2013-01-25 21:02:00,60.8,37.6,29.53,East,92,9.4,9.4,42,0.00,,FEW,0.00,VWS V14.00,2013-01-26 05:02:00,
2013-01-25 21:03:00,60.8,37.6,29.53,East,92,8.1,9.4,42,0.00,,FEW,0.00,VWS V14.00,2013-01-26 05:03:00,
2013-01-25 21:04:00,60.8,37.6,29.53,NE,48,5.8,8.1,42,0.00,,FEW,0.00,VWS V14.00,2013-01-26 05:04:00,
2013-01-25 21:05:00,59.0,46.4,29.41,NNE,25,5.4,5.4,63,0.00,,FEW,0.04,VWS V14.00,2013-01-26 05:05:00,
2013-01-25 21:06:00,60.8,37.6,29.53,ENE,70,6.0,7.8,42,0.00,,FEW,0.00,VWS V14.00,2013-01-26 05:06:00,
2013-01-25 21:07:00,60.6,38.0,29.53,NE,48,6.5,6.5,43,0.00,,FEW,0.00,VWS V14.00,2013-01-26 05:07:00,
2013-01-25 21:08:00,60.6,38.0,29.53,North,2,7.4,7.4,43,0.00,,FEW,0.00,VWS V14.00,2013-01-26 05:08:00,
2013-01-25 21:09:00,60.6,38.0,29.53,NE,48,6.5,7.4,43,0.00,,FEW,0.00,VWS V14.00,2013-01-26 05:09:00,
2013-01-25 21:10:00,59.0,46.4,29.41,SE,138,3.1,4.0,63,0.00,,FEW,0.04,VWS V14.00,2013-01-26 05:10:00,
2013-01-25 21:11:00,60.8,38.2,29.53,NE,48,8.5,8.5,43,0.00,,FEW,0.00,VWS V14.00,2013-01-26 05:11:00,
2013-01-25 21:12:00,60.8,38.2,29.53,NE,48,8.5,8.5,43,0.00,,FEW,0.00,VWS V14.00,2013-01-26 05:12:00,
2013-01-25 21:13:00,60.8,38.8,29.53,NE,48,8.5,8.5,44,0.00,,FEW,0.00,VWS V14.00,2013-01-26 05:13:00,
2013-01-25 21:14:00,60.6,38.6,29.53,NE,48,6.0,9.8,44,0.00,,FEW,0.00,VWS V14.00,2013-01-26 05:14:00,
2013-01-25 21:15:00,58.8,47.1,29.41,East,92,3.1,3.4,65,0.00,,FEW,0.04,VWS V14.00,2013-01-26 05:15:00,
2013-01-25 21:17:00,60.6,38.6,29.53,ENE,70,6.5,6.5,44,0.00,,FEW,0.00,VWS V14.00,2013-01-26 05:17:00,
2013-01-25 21:18:00,60.6,39.2,29.53,East,92,9.6,9.6,45,0.00,,FEW,0.00,VWS V14.00,2013-01-26 05:18:00,
2013-01-25 21:19:00,60.6,39.2,29.53,East,92,9.6,9.6,45,0.00,,FEW,0.00,VWS V14.00,2013-01-26 05:19:00,
2013-01-25 21:20:00,58.3,47.0,29.44,NE,48,3.1,3.1,66,0.00,,FEW,0.04,VWS V14.00,2013-01-26 05:20:00,
2013-01-25 21:21:00,60.6,39.2,29.53,East,92,6.3,6.3,45,0.00,,FEW,0.00,VWS V14.00,2013-01-26 05:21:00,
2013-01-25 21:22:00,60.6,39.2,29.53,NE,48,5.8,6.3,45,0.00,,FEW,0.00,VWS V14.00,2013-01-26 05:22:00,
2013-01-25 21:23:00,60.4,39.0,29.53,NE,48,5.8,5.8,45,0.00,,FEW,0.00,VWS V14.00,2013-01-26 05:23:00,
2013-01-25 21:24:00,60.4,39.0,29.53,North,2,7.2,7.2,45,0.00,,FEW,0.00,VWS V14.00,2013-01-26 05:24:00,
2013-01-25 21:25:00,57.9,48.2,29.44,ESE,115,4.0,4.0,70,0.00,,FEW,0.04,VWS V14.00,2013-01-26 05:25:00,
2013-01-25 21:26:00,60.4,39.0,29.53,NE,48,6.0,7.6,45,0.00,,FEW,0.00,VWS V14.00,2013-01-26 05:26:00,
2013-01-25 21:27:00,60.4,39.0,29.53,North,2,7.4,7.4,45,0.00,,FEW,0.00,VWS V14.00,2013-01-26 05:27:00,
2013-01-25 21:28:00,60.4,39.0,29.53,NE,48,4.7,7.4,45,0.00,,FEW,0.00,VWS V14.00,2013-01-26 05:28:00,
2013-01-25 21:29:00,60.4,39.0,29.53,NE,48,5.6,5.6,45,0.00,,FEW,0.00,VWS V14.00,2013-01-26 05:29:00,
2013-01-25 21:30:00,57.6,48.2,29.44,ESE,115,2.2,2.2,71,0.00,,FEW,0.04,VWS V14.00,2013-01-26 05:30:00,
2013-01-25 21:31:00,60.4,39.0,29.53,NE,48,5.8,5.8,45,0.00,,FEW,0.00,VWS V14.00,2013-01-26 05:31:00,
2013-01-25 21:32:00,60.4,39.0,29.53,NE,48,5.8,5.8,45,0.00,,FEW,0.00,VWS V14.00,2013-01-26 05:32:00,
2013-01-25 21:33:00,60.4,39.0,29.56,NE,48,5.8,5.8,45,0.00,,FEW,0.00,VWS V14.00,2013-01-26 05:33:00,
2013-01-25 21:34:00,60.4,39.0,29.56,NE,48,5.8,5.8,45,0.00,,FEW,0.00,VWS V14.00,2013-01-26 05:34:00,
2013-01-25 21:35:00,57.2,49.0,29.44,SE,138,2.5,2.5,74,0.00,,FEW,0.04,VWS V14.00,2013-01-26 05:35:00,
2013-01-25 21:36:00,60.4,39.6,29.56,SE,138,5.6,10.5,46,0.00,,FEW,0.00,VWS V14.00,2013-01-26 05:36:00,
2013-01-25 21:37:00,60.4,39.6,29.56,SE,138,5.6,5.6,46,0.00,,FEW,0.00,VWS V14.00,2013-01-26 05:37:00,
2013-01-25 21:38:00,60.4,39.6,29.56,NE,48,5.8,7.8,46,0.00,,FEW,0.00,VWS V14.00,2013-01-26 05:38:00,
2013-01-25 21:39:00,60.4,39.6,29.56,NE,48,4.0,5.8,46,0.00,,FEW,0.00,VWS V14.00,2013-01-26 05:39:00,
2013-01-25 21:40:00,57.0,49.2,29.44,SE,138,2.5,2.5,75,0.04,,FEW,0.08,VWS V14.00,2013-01-26 05:40:00,
2013-01-25 21:41:00,60.6,39.2,29.56,NE,48,4.7,4.9,45,0.00,,FEW,0.00,VWS V14.00,2013-01-26 05:41:00,
2013-01-25 21:42:00,60.6,39.2,29.56,East,92,5.6,5.6,45,0.00,,FEW,0.00,VWS V14.00,2013-01-26 05:42:00,
2013-01-25 21:43:00,60.6,39.2,29.56,NE,48,8.1,8.1,45,0.00,,FEW,0.00,VWS V14.00,2013-01-26 05:43:00,
2013-01-25 21:45:00,56.8,50.1,29.44,SE,138,3.8,3.8,78,0.04,,FEW,0.08,VWS V14.00,2013-01-26 05:45:00,
2013-01-25 21:46:00,60.8,39.3,29.56,NE,48,7.6,9.6,45,0.00,,FEW,0.00,VWS V14.00,2013-01-26 05:46:00,
2013-01-25 21:47:00,60.8,39.3,29.56,NE,48,7.6,7.6,45,0.00,,FEW,0.00,VWS V14.00,2013-01-26 05:47:00,
2013-01-25 21:48:00,60.8,39.3,29.56,NE,48,7.6,7.6,45,0.00,,FEW,0.00,VWS V14.00,2013-01-26 05:48:00,
2013-01-25 21:49:00,60.8,39.3,29.56,NE,48,7.8,13.0,45,0.00,,FEW,0.00,VWS V14.00,2013-01-26 05:49:00,
2013-01-25 21:50:00,56.7,50.6,29.44,SE,138,3.8,3.8,80,0.04,,FEW,0.08,VWS V14.00,2013-01-26 05:50:00,
2013-01-25 21:51:00,60.8,39.3,29.56,NE,48,7.4,10.3,45,0.00,,FEW,0.00,VWS V14.00,2013-01-26 05:51:00,
2013-01-25 21:52:00,60.8,39.3,29.56,ENE,70,5.6,9.8,45,0.00,,FEW,0.00,VWS V14.00,2013-01-26 05:52:00,
2013-01-25 21:53:00,60.8,39.3,29.56,NE,48,9.2,9.8,45,0.00,,FEW,0.00,VWS V14.00,2013-01-26 05:53:00,
2013-01-25 21:54:00,60.3,40.5,29.56,East,92,7.6,9.2,48,0.00,,FEW,0.00,VWS V14.00,2013-01-26 05:54:00,
2013-01-25 21:55:00,56.5,50.4,29.44,SE,138,3.8,3.8,80,0.09,,FEW,0.13,VWS V14.00,2013-01-26 05:55:00,
2013-01-25 21:56:00,60.3,40.0,29.56,NE,48,10.1,10.1,47,0.00,,FEW,0.00,VWS V14.00,2013-01-26 05:56:00,
2013-01-25 21:57:00,60.3,40.0,29.56,North,2,4.7,10.1,47,0.00,,FEW,0.00,VWS V14.00,2013-01-26 05:57:00,
2013-01-25 21:58:00,60.3,40.0,29.56,NE,48,7.6,8.7,47,0.00,,FEW,0.00,VWS V14.00,2013-01-26 05:58:00,
2013-01-25 21:59:00,60.3,40.0,29.56,NE,48,4.9,7.6,47,0.00,,FEW,0.00,VWS V14.00,2013-01-26 05:59:00,
2013-01-25 22:00:00,56.3,50.5,29.44,SE,138,1.1,1.1,81,0.09,,FEW,0.13,VWS V14.00,2013-01-26 06:00:00,
2013-01-25 22:01:00,60.4,40.1,29.56,NE,48,7.8,10.1,47,0.00,,FEW,0.00,VWS V14.00,2013-01-26 06:01:00,
2013-01-25 22:02:00,60.6,39.8,29.56,NE,48,7.2,8.1,46,0.00,,FEW,0.00,VWS V14.00,2013-01-26 06:02:00,
2013-01-25 22:03:00,60.6,40.3,29.56,East,92,4.0,7.2,47,0.00,,FEW,0.00,VWS V14.00,2013-01-26 06:03:00,
2013-01-25 22:04:00,60.6,40.3,29.56,NE,48,6.5,8.1,47,0.00,,FEW,0.00,VWS V14.00,2013-01-26 06:04:00,
2013-01-25 22:05:00,56.3,51.5,29.41,SE,138,1.1,1.1,84,0.09,,FEW,0.13,VWS V14.00,2013-01-26 06:05:00,
2013-01-25 22:06:00,60.8,39.9,29.56,NE,48,8.7,11.0,46,0.00,,FEW,0.00,VWS V14.00,2013-01-26 06:06:00,
2013-01-25 22:08:00,60.8,39.9,29.56,NE,48,6.3,8.7,46,0.00,,FEW,0.00,VWS V14.00,2013-01-26 06:08:00,
2013-01-25 22:09:00,61.0,40.1,29.56,NE,48,6.5,6.5,46,0.00,,FEW,0.00,VWS V14.00,2013-01-26 06:09:00,
2013-01-25 22:10:00,56.3,53.1,29.41,SE,138,1.1,1.1,89,0.09,,FEW,0.13,VWS V14.00,2013-01-26 06:10:00,
2013-01-25 22:11:00,61.0,40.1,29.56,ENE,70,3.8,3.8,46,0.00,,FEW,0.00,VWS V14.00,2013-01-26 06:11:00,
2013-01-25 22:12:00,61.0,40.6,29.56,East,92,3.4,6.5,47,0.00,,FEW,0.00,VWS V14.00,2013-01-26 06:12:00,
2013-01-25 22:13:00,61.0,40.6,29.56,East,92,3.4,3.4,47,0.00,,FEW,0.00,VWS V14.00,2013-01-26 06:13:00,
2013-01-25 22:14:00,61.0,40.6,29.56,East,92,2.9,3.4,47,0.00,,FEW,0.00,VWS V14.00,2013-01-26 06:14:00,
2013-01-25 22:15:00,56.3,53.7,29.41,SE,138,1.1,1.1,91,0.13,,FEW,0.17,VWS V14.00,2013-01-26 06:15:00,
2013-01-25 22:16:00,61.0,40.6,29.56,East,92,4.0,4.3,47,0.00,,FEW,0.00,VWS V14.00,2013-01-26 06:16:00,
2013-01-25 22:17:00,61.0,40.6,29.56,East,92,9.0,9.0,47,0.00,,FEW,0.00,VWS V14.00,2013-01-26 06:17:00,
2013-01-25 22:18:00,61.0,40.6,29.56,East,92,3.6,9.0,47,0.00,,FEW,0.00,VWS V14.00,2013-01-26 06:18:00,
2013-01-25 22:19:00,61.0,40.6,29.56,NE,48,2.5,3.6,47,0.00,,FEW,0.00,VWS V14.00,2013-01-26 06:19:00,
2013-01-25 22:20:00,56.3,54.0,29.44,SE,138,1.1,1.1,92,0.13,,FEW,0.17,VWS V14.00,2013-01-26 06:20:00,
2013-01-25 22:21:00,61.0,40.6,29.56,East,92,3.6,6.9,47,0.00,,FEW,0.00,VWS V14.00,2013-01-26 06:21:00,
2013-01-25 22:22:00,60.1,41.4,29.56,NE,48,4.0,4.0,50,0.00,,FEW,0.00,VWS V14.00,2013-01-26 06:22:00,
2013-01-25 22:23:00,60.1,41.4,29.56,NNE,25,2.7,4.0,50,0.00,,FEW,0.00,VWS V14.00,2013-01-26 06:23:00,
2013-01-25 22:24:00,60.1,41.4,29.56,NE,48,4.9,6.0,50,0.00,,FEW,0.00,VWS V14.00,2013-01-26 06:24:00,
2013-01-25 22:25:00,56.5,54.2,29.44,SE,138,1.1,1.1,92,0.13,,FEW,0.17,VWS V14.00,2013-01-26 06:25:00,
2013-01-25 22:26:00,60.1,41.4,29.56,NE,48,4.7,4.7,50,0.00,,FEW,0.00,VWS V14.00,2013-01-26 06:26:00,
2013-01-25 22:27:00,60.1,41.4,29.56,NE,48,4.7,4.7,50,0.00,,FEW,0.00,VWS V14.00,2013-01-26 06:27:00,
2013-01-25 22:28:00,60.1,41.4,29.56,NE,48,5.8,5.8,50,0.00,,FEW,0.00,VWS V14.00,2013-01-26 06:28:00,
2013-01-25 22:29:00,60.1,41.4,29.56,NE,48,3.8,5.8,50,0.00,,FEW,0.00,VWS V14.00,2013-01-26 06:29:00,
2013-01-25 22:30:00,56.5,53.6,29.44,SE,138,1.1,1.1,90,0.13,,FEW,0.17,VWS V14.00,2013-01-26 06:30:00,
2013-01-25 22:31:00,60.1,41.4,29.56,SE,138,3.1,4.9,50,0.00,,FEW,0.00,VWS V14.00,2013-01-26 06:31:00,
2013-01-25 22:32:00,60.1,41.4,29.56,ENE,70,2.5,3.1,50,0.00,,FEW,0.00,VWS V14.00,2013-01-26 06:32:00,
2013-01-25 22:33:00,60.1,41.4,29.56,ENE,70,2.5,2.5,50,0.00,,FEW,0.00,VWS V14.00,2013-01-26 06:33:00,
2013-01-25 22:34:00,60.1,41.4,29.56,NE,48,3.4,3.4,50,0.00,,FEW,0.00,VWS V14.00,2013-01-26 06:34:00,
2013-01-25 22:35:00,56.3,53.4,29.41,SE,138,1.1,1.1,90,0.13,,FEW,0.17,VWS V14.00,2013-01-26 06:35:00,
2013-01-25 22:36:00,60.1,41.4,29.56,NE,48,2.5,2.5,50,0.00,,FEW,0.00,VWS V14.00,2013-01-26 06:36:00,
2013-01-25 22:37:00,60.1,41.4,29.56,East,92,2.7,6.3,50,0.00,,FEW,0.00,VWS V14.00,2013-01-26 06:37:00,
2013-01-25 22:38:00,60.1,41.4,29.56,NE,48,5.8,5.8,50,0.00,,FEW,0.00,VWS V14.00,2013-01-26 06:38:00,
2013-01-25 22:39:00,60.1,41.4,29.56,NE,48,5.4,7.8,50,0.00,,FEW,0.00,VWS V14.00,2013-01-26 06:39:00,
2013-01-25 22:40:00,56.3,53.4,29.41,SE,138,1.1,1.1,90,0.13,,FEW,0.21,VWS V14.00,2013-01-26 06:40:00,
2013-01-25 22:41:00,60.1,41.4,29.56,NE,48,6.5,7.4,50,0.00,,FEW,0.00,VWS V14.00,2013-01-26 06:41:00,
2013-01-25 22:42:00,59.2,43.5,29.56,East,92,3.8,6.5,56,0.00,,FEW,0.00,VWS V14.00,2013-01-26 06:42:00,
2013-01-25 22:43:00,59.2,43.5,29.56,NE,48,5.4,6.3,56,0.00,,FEW,0.00,VWS V14.00,2013-01-26 06:43:00,
2013-01-25 22:44:00,59.2,43.5,29.56,NE,48,5.4,5.4,56,0.00,,FEW,0.00,VWS V14.00,2013-01-26 06:44:00,
2013-01-25 22:45:00,56.3,53.1,29.41,SE,138,1.1,1.1,89,0.13,,FEW,0.21,VWS V14.00,2013-01-26 06:45:00,
2013-01-25 22:46:00,58.6,44.8,29.56,East,92,4.0,5.4,60,0.00,,FEW,0.00,VWS V14.00,2013-01-26 06:46:00,
2013-01-25 22:47:00,58.6,44.4,29.56,NE,48,7.6,10.3,59,0.00,,FEW,0.00,VWS V14.00,2013-01-26 06:47:00,
2013-01-25 22:48:00,58.5,44.6,29.56,NE,48,3.8,7.6,60,0.00,,FEW,0.00,VWS V14.00,2013-01-26 06:48:00,
2013-01-25 22:49:00,58.5,45.1,29.56,NE,48,8.1,8.1,61,0.00,,FEW,0.00,VWS V14.00,2013-01-26 06:49:00,
2013-01-25 22:50:00,56.3,53.1,29.41,SE,138,1.1,1.1,89,0.13,,FEW,0.21,VWS V14.00,2013-01-26 06:50:00,
2013-01-25 22:51:00,58.5,45.1,29.56,ENE,70,5.8,8.1,61,0.00,,FEW,0.00,VWS V14.00,2013-01-26 06:51:00,
2013-01-25 22:52:00,58.5,45.1,29.56,NE,48,4.7,5.8,61,0.00,,FEW,0.00,VWS V14.00,2013-01-26 06:52:00,
2013-01-25 22:53:00,58.3,45.8,29.56,NE,48,4.7,4.7,63,0.00,,FEW,0.00,VWS V14.00,2013-01-26 06:53:00,
2013-01-25 22:54:00,58.1,45.2,29.56,NE,48,2.7,6.3,62,0.00,,FEW,0.00,VWS V14.00,2013-01-26 06:54:00,
2013-01-25 22:55:00,56.1,52.6,29.41,South,182,0.0,1.1,88,0.08,,FEW,0.21,VWS V14.00,2013-01-26 06:55:00,
2013-01-25 22:56:00,58.1,45.6,29.56,SSE,160,4.9,4.9,63,0.00,,FEW,0.00,VWS V14.00,2013-01-26 06:56:00,
2013-01-25 22:57:00,58.1,46.0,29.56,NNE,25,4.7,4.9,64,0.00,,FEW,0.00,VWS V14.00,2013-01-26 06:57:00,
2013-01-25 22:58:00,58.1,46.4,29.56,NE,48,4.3,4.7,65,0.00,,FEW,0.00,VWS V14.00,2013-01-26 06:58:00,
2013-01-25 22:59:00,58.1,46.4,29.56,NE,48,3.8,5.6,65,0.00,,FEW,0.00,VWS V14.00,2013-01-26 06:59:00,
2013-01-25 23:00:00,56.1,52.6,29.41,South,182,0.0,0.0,88,0.08,,FEW,0.21,VWS V14.00,2013-01-26 07:00:00,
2013-01-25 23:01:00,57.9,46.2,29.56,North,2,4.0,8.1,65,0.00,,FEW,0.00,VWS V14.00,2013-01-26 07:01:00,
2013-01-25 23:02:00,57.7,46.5,29.56,North,2,4.0,4.0,66,0.00,,FEW,0.00,VWS V14.00,2013-01-26 07:02:00,
2013-01-25 23:03:00,57.7,46.9,29.56,North,2,4.0,4.0,67,0.00,,FEW,0.00,VWS V14.00,2013-01-26 07:03:00,
2013-01-25 23:04:00,57.7,46.9,29.56,NE,48,1.3,4.0,67,0.00,,FEW,0.00,VWS V14.00,2013-01-26 07:04:00,
2013-01-25 23:05:00,56.1,52.6,29.44,South,182,0.0,0.0,88,0.08,,FEW,0.21,VWS V14.00,2013-01-26 07:05:00,
2013-01-25 23:06:00,57.6,46.7,29.56,ENE,70,5.6,5.6,67,0.00,,FEW,0.00,VWS V14.00,2013-01-26 07:06:00,
2013-01-25 23:07:00,57.6,47.1,29.56,NE,48,3.1,5.6,68,0.00,,FEW,0.00,VWS V14.00,2013-01-26 07:07:00,
2013-01-25 23:08:00,57.4,47.7,29.56,NE,48,3.1,3.1,70,0.00,,FEW,0.00,VWS V14.00,2013-01-26 07:08:00,
2013-01-25 23:09:00,57.4,47.7,29.56,NE,48,3.1,3.1,70,0.00,,FEW,0.00,VWS V14.00,2013-01-26 07:09:00,
2013-01-25 23:10:00,56.3,52.8,29.44,SSE,160,3.8,3.8,88,0.08,,FEW,0.21,VWS V14.00,2013-01-26 07:10:00,
2013-01-25 23:11:00,57.2,47.9,29.56,ENE,70,1.1,3.1,71,0.00,,FEW,0.00,VWS V14.00,2013-01-26 07:11:00,
2013-01-25 23:12:00,57.2,47.5,29.56,East,92,1.6,2.2,70,0.00,,FEW,0.00,VWS V14.00,2013-01-26 07:12:00,
2013-01-25 23:13:00,57.2,47.5,29.56,East,92,1.6,1.6,70,0.00,,FEW,0.00,VWS V14.00,2013-01-26 07:13:00,
2013-01-25 23:14:00,57.2,47.5,29.56,ENE,70,2.9,2.9,70,0.00,,FEW,0.00,VWS V14.00,2013-01-26 07:14:00,
2013-01-25 23:15:00,56.3,52.8,29.44,SSE,160,3.8,3.8,88,0.04,,FEW,0.21,VWS V14.00,2013-01-26 07:15:00,
2013-01-25 23:16:00,57.2,47.5,29.56,ENE,70,2.9,2.9,70,0.00,,FEW,0.00,VWS V14.00,2013-01-26 07:16:00,
2013-01-25 23:17:00,57.2,47.5,29.56,ENE,70,2.9,2.9,70,0.00,,FEW,0.00,VWS V14.00,2013-01-26 07:17:00,
2013-01-25 23:18:00,57.2,47.5,29.56,ENE,70,2.9,2.9,70,0.00,,FEW,0.00,VWS V14.00,2013-01-26 07:18:00,
2013-01-25 23:19:00,57.2,47.9,29.56,ENE,70,2.9,2.9,71,0.00,,FEW,0.00,VWS V14.00,2013-01-26 07:19:00,
2013-01-25 23:20:00,56.3,52.8,29.41,SE,138,2.7,2.7,88,0.04,,FEW,0.21,VWS V14.00,2013-01-26 07:20:00,
2013-01-25 23:21:00,57.2,47.9,29.56,ENE,70,2.9,2.9,71,0.00,,FEW,0.00,VWS V14.00,2013-01-26 07:21:00,
2013-01-25 23:22:00,57.2,47.9,29.56,ENE,70,2.9,2.9,71,0.04,,FEW,0.04,VWS V14.00,2013-01-26 07:22:00,
2013-01-25 23:24:00,57.2,48.6,29.56,East,92,2.5,2.9,73,0.04,,FEW,0.04,VWS V14.00,2013-01-26 07:24:00,
2013-01-25 23:25:00,56.3,52.8,29.41,SE,138,2.7,2.7,88,0.04,,FEW,0.21,VWS V14.00,2013-01-26 07:25:00,
2013-01-25 23:26:00,57.2,49.0,29.56,East,92,2.5,2.5,74,0.04,,FEW,0.04,VWS V14.00,2013-01-26 07:26:00,
2013-01-25 23:27:00,57.2,49.0,29.56,East,92,2.5,2.5,74,0.04,,FEW,0.04,VWS V14.00,2013-01-26 07:27:00,
2013-01-25 23:28:00,57.2,49.0,29.56,East,92,2.5,2.5,74,0.04,,FEW,0.04,VWS V14.00,2013-01-26 07:28:00,
2013-01-25 23:29:00,57.2,49.0,29.56,East,92,2.5,2.5,74,0.04,,FEW,0.04,VWS V14.00,2013-01-26 07:29:00,
2013-01-25 23:30:00,56.3,52.8,29.41,SE,138,2.9,2.9,88,0.04,,FEW,0.21,VWS V14.00,2013-01-26 07:30:00,
2013-01-25 23:31:00,57.4,49.9,29.56,East,92,2.5,2.5,76,0.04,,FEW,0.04,VWS V14.00,2013-01-26 07:31:00,
2013-01-25 23:32:00,57.4,49.9,29.56,East,92,2.5,2.5,76,0.04,,FEW,0.04,VWS V14.00,2013-01-26 07:32:00,
2013-01-25 23:33:00,57.2,49.7,29.53,East,92,2.5,2.5,76,0.04,,FEW,0.04,VWS V14.00,2013-01-26 07:33:00,
2013-01-25 23:34:00,57.2,49.7,29.53,East,92,2.5,2.5,76,0.04,,FEW,0.04,VWS V14.00,2013-01-26 07:34:00,
2013-01-25 23:35:00,56.3,52.8,29.38,SSE,160,3.1,3.1,88,0.04,,FEW,0.21,VWS V14.00,2013-01-26 07:35:00,
2013-01-25 23:36:00,57.2,49.7,29.53,East,92,2.5,2.5,76,0.04,,FEW,0.04,VWS V14.00,2013-01-26 07:36:00,
2013-01-25 23:37:00,57.2,50.1,29.53,East,92,2.5,2.5,77,0.04,,FEW,0.04,VWS V14.00,2013-01-26 07:37:00,
2013-01-25 23:38:00,57.0,49.9,29.53,East,92,2.5,2.5,77,0.04,,FEW,0.04,VWS V14.00,2013-01-26 07:38:00,
2013-01-25 23:39:00,57.0,49.9,29.53,East,92,2.5,2.5,77,0.04,,FEW,0.04,VWS V14.00,2013-01-26 07:39:00,
2013-01-25 23:40:00,56.3,52.8,29.38,SW,228,2.5,2.9,88,0.00,,FEW,0.21,VWS V14.00,2013-01-26 07:40:00,
2013-01-25 23:41:00,57.0,50.2,29.53,East,92,2.5,2.5,78,0.04,,FEW,0.04,VWS V14.00,2013-01-26 07:41:00,
2013-01-25 23:42:00,56.8,50.1,29.53,East,92,2.5,2.5,78,0.04,,FEW,0.04,VWS V14.00,2013-01-26 07:42:00,
2013-01-25 23:43:00,56.8,50.1,29.53,East,92,2.5,2.5,78,0.04,,FEW,0.04,VWS V14.00,2013-01-26 07:43:00,
2013-01-25 23:44:00,56.8,50.1,29.53,East,92,2.5,2.5,78,0.04,,FEW,0.04,VWS V14.00,2013-01-26 07:44:00,
2013-01-25 23:45:00,56.5,53.0,29.38,SE,138,2.5,2.5,88,0.00,,FEW,0.21,VWS V14.00,2013-01-26 07:45:00,
2013-01-25 23:46:00,56.8,50.1,29.53,East,92,2.5,2.5,78,0.04,,FEW,0.04,VWS V14.00,2013-01-26 07:46:00,
2013-01-25 23:47:00,56.8,50.1,29.53,East,92,2.5,2.5,78,0.04,,FEW,0.04,VWS V14.00,2013-01-26 07:47:00,
2013-01-25 23:48:00,56.8,50.1,29.53,East,92,2.5,2.5,78,0.04,,FEW,0.04,VWS V14.00,2013-01-26 07:48:00,
2013-01-25 23:49:00,56.8,50.1,29.53,East,92,2.5,2.5,78,0.04,,FEW,0.04,VWS V14.00,2013-01-26 07:49:00,
2013-01-25 23:50:00,56.5,52.7,29.38,SSE,160,1.3,2.7,87,0.00,,FEW,0.21,VWS V14.00,2013-01-26 07:50:00,
2013-01-25 23:51:00,56.8,50.1,29.53,ENE,70,3.4,3.4,78,0.04,,FEW,0.04,VWS V14.00,2013-01-26 07:51:00,
2013-01-25 23:52:00,56.8,50.1,29.53,ENE,70,3.4,3.4,78,0.04,,FEW,0.04,VWS V14.00,2013-01-26 07:52:00,
2013-01-25 23:53:00,56.8,50.1,29.53,ENE,70,3.4,3.4,78,0.04,,FEW,0.04,VWS V14.00,2013-01-26 07:53:00,
2013-01-25 23:54:00,56.8,50.1,29.53,ENE,70,3.4,3.4,78,0.04,,FEW,0.04,VWS V14.00,2013-01-26 07:54:00,
2013-01-25 23:55:00,56.5,52.7,29.38,South,182,2.0,2.0,87,0.00,,FEW,0.21,VWS V14.00,2013-01-26 07:55:00,
2013-01-25 23:56:00,57.0,50.2,29.53,NE,48,3.8,3.8,78,0.04,,FEW,0.04,VWS V14.00,2013-01-26 07:56:00,
2013-01-25 23:57:00,57.0,50.2,29.53,SE,138,2.9,3.8,78,0.04,,FEW,0.04,VWS V14.00,2013-01-26 07:57:00,
2013-01-25 23:58:00,57.0,50.6,29.53,SE,138,2.9,2.9,79,0.04,,FEW,0.04,VWS V14.00,2013-01-26 07:58:00,
2013-01-25 23:59:00,57.0,50.6,29.53,SE,138,2.9,2.9,79,0.04,,FEW,0.04,VWS V14.00,2013-01-26 07:59:00,